Time,TemperatureF,DewpointF,PressureIn,WindDirection,WindDirectionDegrees,WindSpeedMPH,WindSpeedGustMPH,Humidity,HourlyPrecipIn,Conditions,Clouds,dailyrainin,SolarRadiationWatts/m^2,SoftwareType,DateUTC
2013-09-15 00:00:00,45.3,44.5,30.16,ESE,112,0.0,0.0,97,0.00,,---,0.00,0.00,VWS V14.00,2013-09-15 04:00:00,
2013-09-15 00:30:00,44.7,43.9,30.15,ESE,112,0.0,1.0,97,0.00,,---,0.00,0.00,VWS V14.00,2013-09-15 04:30:00,
2013-09-15 01:00:00,44.2,43.4,30.14,ESE,112,0.0,0.0,97,0.00,,---,0.00,0.00,VWS V14.00,2013-09-15 05:00:00,
2013-09-15 01:30:00,43.5,42.7,30.14,ESE,112,0.0,1.0,97,0.00,,---,0.00,0.00,VWS V14.00,2013-09-15 05:30:00,
2013-09-15 02:00:00,43.6,43.1,30.13,ESE,112,0.0,1.0,98,0.00,,---,0.00,0.00,VWS V14.00,2013-09-15 06:00:00,
2013-09-15 02:30:00,44.2,43.7,30.13,ESE,112,0.0,0.0,98,0.00,,---,0.00,0.00,VWS V14.00,2013-09-15 06:30:00,
2013-09-15 03:00:00,44.0,43.5,30.12,ESE,112,0.0,0.0,98,0.00,,---,0.00,0.00,VWS V14.00,2013-09-15 07:00:00,
2013-09-15 03:30:00,43.5,43.0,30.13,ESE,112,0.0,0.0,98,0.00,,---,0.00,0.00,VWS V14.00,2013-09-15 07:30:00,
2013-09-15 04:00:00,43.2,42.7,30.13,ESE,112,0.0,1.0,98,0.00,,---,0.00,0.00,VWS V14.00,2013-09-15 08:00:00,
2013-09-15 04:30:00,42.7,42.2,30.15,ESE,112,0.0,0.0,98,0.00,,---,0.00,0.00,VWS V14.00,2013-09-15 08:30:00,
2013-09-15 05:00:00,41.7,41.2,30.15,ESE,112,0.0,0.0,98,0.00,,---,0.00,0.00,VWS V14.00,2013-09-15 09:00:00,
2013-09-15 05:30:00,42.7,42.4,30.14,ESE,112,0.0,0.0,99,0.00,,---,0.01,0.00,VWS V14.00,2013-09-15 09:30:00,
2013-09-15 06:00:00,42.3,41.8,30.14,ESE,112,0.0,0.0,98,0.00,,---,0.01,0.00,VWS V14.00,2013-09-15 10:00:00,
2013-09-15 06:16:00,42.1,41.6,30.16,ESE,108,0.0,0.0,98,0.00,,---,0.01,0.00,VWS V14.00,2013-09-15 10:16:00,
2013-09-15 06:17:00,42.1,41.6,30.16,ESE,108,0.0,0.0,98,0.00,,---,0.01,0.00,VWS V14.00,2013-09-15 10:17:00,
2013-09-15 06:18:00,42.1,41.6,30.16,ESE,108,0.0,0.0,98,0.00,,---,0.01,0.00,VWS V14.00,2013-09-15 10:18:00,
2013-09-15 06:19:00,42.1,41.6,30.15,ESE,108,0.0,0.0,98,0.00,,---,0.01,0.00,VWS V14.00,2013-09-15 10:19:00,
2013-09-15 06:20:00,42.0,41.5,30.15,ESE,108,0.0,0.0,98,0.00,,---,0.01,0.00,VWS V14.00,2013-09-15 10:20:00,
2013-09-15 06:21:00,42.0,41.5,30.16,ESE,108,0.0,0.0,98,0.00,,---,0.01,0.00,VWS V14.00,2013-09-15 10:21:00,
2013-09-15 06:22:00,42.0,41.5,30.16,ESE,108,0.0,0.0,98,0.00,,---,0.01,0.00,VWS V14.00,2013-09-15 10:22:00,
2013-09-15 06:23:00,42.0,41.5,30.16,ESE,108,0.0,0.0,98,0.00,,---,0.01,0.00,VWS V14.00,2013-09-15 10:23:00,
2013-09-15 06:24:00,42.0,41.5,30.16,ESE,108,0.0,0.0,98,0.00,,---,0.01,0.00,VWS V14.00,2013-09-15 10:24:00,
2013-09-15 06:25:00,42.0,41.5,30.16,ESE,108,0.0,0.0,98,0.00,,---,0.01,0.00,VWS V14.00,2013-09-15 10:25:00,
2013-09-15 06:26:00,42.0,41.5,30.16,ESE,108,0.0,0.0,98,0.00,,---,0.01,0.00,VWS V14.00,2013-09-15 10:26:00,
2013-09-15 06:27:00,41.9,41.4,30.16,ESE,108,0.0,0.0,98,0.00,,---,0.01,0.00,VWS V14.00,2013-09-15 10:27:00,
2013-09-15 06:28:00,41.9,41.4,30.16,ESE,108,0.0,0.0,98,0.00,,---,0.01,0.00,VWS V14.00,2013-09-15 10:28:00,
2013-09-15 06:29:00,41.9,41.4,30.16,ESE,108,0.0,0.0,98,0.00,,---,0.01,0.00,VWS V14.00,2013-09-15 10:29:00,
2013-09-15 06:30:00,41.8,41.3,30.16,ESE,108,0.0,0.0,98,0.00,,---,0.01,0.00,VWS V14.00,2013-09-15 10:30:00,
2013-09-15 06:31:00,41.8,41.3,30.16,ESE,108,0.0,0.0,98,0.00,,---,0.01,0.00,VWS V14.00,2013-09-15 10:31:00,
2013-09-15 06:32:00,41.8,41.3,30.16,ESE,108,0.0,0.0,98,0.00,,---,0.01,0.00,VWS V14.00,2013-09-15 10:32:00,
2013-09-15 06:33:00,41.8,41.3,30.16,ESE,108,0.0,0.0,98,0.00,,---,0.01,0.00,VWS V14.00,2013-09-15 10:33:00,
2013-09-15 06:34:00,41.7,41.2,30.16,ESE,108,0.0,0.0,98,0.00,,---,0.01,0.00,VWS V14.00,2013-09-15 10:34:00,
2013-09-15 06:35:00,41.7,41.2,30.16,ESE,108,0.0,0.0,98,0.00,,---,0.01,0.00,VWS V14.00,2013-09-15 10:35:00,
2013-09-15 06:36:00,41.6,41.1,30.16,ESE,108,0.0,0.0,98,0.00,,---,0.01,0.00,VWS V14.00,2013-09-15 10:36:00,
2013-09-15 06:37:00,41.6,41.1,30.16,ESE,108,0.0,0.0,98,0.00,,---,0.01,0.00,VWS V14.00,2013-09-15 10:37:00,
2013-09-15 06:38:00,41.6,41.1,30.17,ESE,108,0.0,0.0,98,0.00,,---,0.01,0.00,VWS V14.00,2013-09-15 10:38:00,
2013-09-15 06:39:00,41.6,41.1,30.17,ESE,108,0.0,0.0,98,0.00,,---,0.01,0.00,VWS V14.00,2013-09-15 10:39:00,
2013-09-15 06:40:00,41.6,41.1,30.17,ESE,108,0.0,0.0,98,0.00,,---,0.01,5.00,VWS V14.00,2013-09-15 10:40:00,
2013-09-15 06:41:00,41.5,41.0,30.17,ESE,108,0.0,0.0,98,0.00,,---,0.01,5.00,VWS V14.00,2013-09-15 10:41:00,
2013-09-15 06:42:00,41.5,41.0,30.17,ESE,108,0.0,0.0,98,0.00,,---,0.01,5.00,VWS V14.00,2013-09-15 10:42:00,
2013-09-15 06:43:00,41.5,41.0,30.17,ESE,108,0.0,0.0,98,0.00,,---,0.01,5.00,VWS V14.00,2013-09-15 10:43:00,
2013-09-15 06:44:00,41.5,41.0,30.17,ESE,108,0.0,0.0,98,0.00,,---,0.01,5.00,VWS V14.00,2013-09-15 10:44:00,
2013-09-15 06:45:00,41.5,41.0,30.17,ESE,108,0.0,0.0,98,0.00,,---,0.01,7.00,VWS V14.00,2013-09-15 10:45:00,
2013-09-15 06:46:00,41.5,41.0,30.17,ESE,108,0.0,0.0,98,0.00,,---,0.01,7.00,VWS V14.00,2013-09-15 10:46:00,
2013-09-15 06:47:00,41.5,41.0,30.17,ESE,108,0.0,0.0,98,0.00,,---,0.01,7.00,VWS V14.00,2013-09-15 10:47:00,
2013-09-15 06:48:00,41.5,41.0,30.17,ESE,108,0.0,0.0,98,0.00,,---,0.01,9.00,VWS V14.00,2013-09-15 10:48:00,
2013-09-15 06:49:00,41.5,41.0,30.17,ESE,108,0.0,0.0,98,0.00,,---,0.01,9.00,VWS V14.00,2013-09-15 10:49:00,
2013-09-15 06:50:00,41.5,41.0,30.17,ESE,108,0.0,0.0,98,0.00,,---,0.01,11.00,VWS V14.00,2013-09-15 10:50:00,
2013-09-15 06:51:00,41.5,41.0,30.17,ESE,108,0.0,0.0,98,0.00,,---,0.01,11.00,VWS V14.00,2013-09-15 10:51:00,
2013-09-15 06:52:00,41.5,41.0,30.17,ESE,108,0.0,0.0,98,0.00,,---,0.01,11.00,VWS V14.00,2013-09-15 10:52:00,
2013-09-15 06:53:00,41.4,40.9,30.17,ESE,108,0.0,0.0,98,0.00,,---,0.01,12.00,VWS V14.00,2013-09-15 10:53:00,
2013-09-15 06:54:00,41.4,40.9,30.17,ESE,108,0.0,0.0,98,0.00,,---,0.01,12.00,VWS V14.00,2013-09-15 10:54:00,
2013-09-15 06:55:00,41.4,40.9,30.17,ESE,108,0.0,0.0,98,0.00,,---,0.01,12.00,VWS V14.00,2013-09-15 10:55:00,
2013-09-15 06:56:00,41.4,40.9,30.17,ESE,108,0.0,0.0,98,0.00,,---,0.01,14.00,VWS V14.00,2013-09-15 10:56:00,
2013-09-15 06:57:00,41.4,40.9,30.17,ESE,108,0.0,0.0,98,0.00,,---,0.01,16.00,VWS V14.00,2013-09-15 10:57:00,
2013-09-15 06:58:00,41.4,40.9,30.17,ESE,108,0.0,0.0,98,0.00,,---,0.01,18.00,VWS V14.00,2013-09-15 10:58:00,
2013-09-15 06:59:00,41.4,40.9,30.17,ESE,108,0.0,0.0,98,0.00,,---,0.01,18.00,VWS V14.00,2013-09-15 10:59:00,
2013-09-15 07:00:00,41.4,40.9,30.17,ESE,108,0.0,0.0,98,0.00,,---,0.01,19.00,VWS V14.00,2013-09-15 11:00:00,
2013-09-15 07:01:00,41.4,40.9,30.17,ESE,108,0.0,0.0,98,0.00,,---,0.01,19.00,VWS V14.00,2013-09-15 11:01:00,
2013-09-15 07:02:00,41.4,40.9,30.17,ESE,108,0.0,0.0,98,0.00,,---,0.01,18.00,VWS V14.00,2013-09-15 11:02:00,
2013-09-15 07:03:00,41.4,40.9,30.17,ESE,108,0.0,0.0,98,0.00,,---,0.01,18.00,VWS V14.00,2013-09-15 11:03:00,
2013-09-15 07:04:00,41.4,40.9,30.17,ESE,108,0.0,0.0,98,0.00,,---,0.01,18.00,VWS V14.00,2013-09-15 11:04:00,
2013-09-15 07:05:00,41.5,41.0,30.17,ESE,108,0.0,0.0,98,0.00,,---,0.01,19.00,VWS V14.00,2013-09-15 11:05:00,
2013-09-15 07:06:00,41.5,41.0,30.17,ESE,108,0.0,0.0,98,0.00,,---,0.01,19.00,VWS V14.00,2013-09-15 11:06:00,
2013-09-15 07:07:00,41.5,41.0,30.17,ESE,108,0.0,0.0,98,0.00,,---,0.01,21.00,VWS V14.00,2013-09-15 11:07:00,
2013-09-15 07:08:00,41.5,41.0,30.17,ESE,108,0.0,0.0,98,0.00,,---,0.01,23.00,VWS V14.00,2013-09-15 11:08:00,
2013-09-15 07:09:00,41.5,41.0,30.17,ESE,108,0.0,0.0,98,0.00,,---,0.01,21.00,VWS V14.00,2013-09-15 11:09:00,
2013-09-15 07:10:00,41.5,41.0,30.17,ESE,108,0.0,0.0,98,0.00,,---,0.01,21.00,VWS V14.00,2013-09-15 11:10:00,
2013-09-15 07:11:00,41.6,41.1,30.17,ESE,108,0.0,0.0,98,0.00,,---,0.01,23.00,VWS V14.00,2013-09-15 11:11:00,
2013-09-15 07:12:00,41.6,41.1,30.17,ESE,108,0.0,0.0,98,0.00,,---,0.01,26.00,VWS V14.00,2013-09-15 11:12:00,
2013-09-15 07:13:00,41.6,41.1,30.17,ESE,108,0.0,0.0,98,0.00,,---,0.01,26.00,VWS V14.00,2013-09-15 11:13:00,
2013-09-15 07:14:00,41.7,41.2,30.17,ESE,108,0.0,0.0,98,0.00,,---,0.01,32.00,VWS V14.00,2013-09-15 11:14:00,
2013-09-15 07:15:00,41.7,41.2,30.17,ESE,108,0.0,0.0,98,0.00,,---,0.01,37.00,VWS V14.00,2013-09-15 11:15:00,
2013-09-15 07:16:00,41.8,41.3,30.17,ESE,108,0.0,0.0,98,0.00,,---,0.01,35.00,VWS V14.00,2013-09-15 11:16:00,
2013-09-15 07:17:00,41.8,41.3,30.17,ESE,108,0.0,0.0,98,0.00,,---,0.01,32.00,VWS V14.00,2013-09-15 11:17:00,
2013-09-15 07:18:00,41.9,41.4,30.17,ESE,108,0.0,0.0,98,0.00,,---,0.01,32.00,VWS V14.00,2013-09-15 11:18:00,
2013-09-15 07:19:00,41.9,41.4,30.17,ESE,108,0.0,0.0,98,0.00,,---,0.01,32.00,VWS V14.00,2013-09-15 11:19:00,
2013-09-15 07:20:00,41.9,41.6,30.17,ESE,108,0.0,0.0,99,0.00,,---,0.01,33.00,VWS V14.00,2013-09-15 11:20:00,
2013-09-15 07:21:00,42.0,41.7,30.17,ESE,108,0.0,0.0,99,0.00,,---,0.01,35.00,VWS V14.00,2013-09-15 11:21:00,
2013-09-15 07:22:00,42.0,41.7,30.17,ESE,108,0.0,0.0,99,0.00,,---,0.01,37.00,VWS V14.00,2013-09-15 11:22:00,
2013-09-15 07:23:00,42.0,41.7,30.17,ESE,108,0.0,0.0,99,0.00,,---,0.01,39.00,VWS V14.00,2013-09-15 11:23:00,
2013-09-15 07:24:00,42.1,41.8,30.17,ESE,108,0.0,0.0,99,0.00,,---,0.01,37.00,VWS V14.00,2013-09-15 11:24:00,
2013-09-15 07:25:00,42.1,41.8,30.17,ESE,108,0.0,0.0,99,0.00,,---,0.01,39.00,VWS V14.00,2013-09-15 11:25:00,
2013-09-15 07:26:00,42.2,41.9,30.17,ESE,108,0.0,0.0,99,0.00,,---,0.01,39.00,VWS V14.00,2013-09-15 11:26:00,
2013-09-15 07:27:00,42.2,41.9,30.17,ESE,108,0.0,0.0,99,0.00,,---,0.01,39.00,VWS V14.00,2013-09-15 11:27:00,
2013-09-15 07:28:00,42.2,41.9,30.17,ESE,108,0.0,0.0,99,0.00,,---,0.01,35.00,VWS V14.00,2013-09-15 11:28:00,
2013-09-15 07:29:00,42.3,42.0,30.17,ESE,108,0.0,0.0,99,0.00,,---,0.01,39.00,VWS V14.00,2013-09-15 11:29:00,
2013-09-15 07:30:00,42.3,41.8,30.17,ESE,108,0.0,0.0,98,0.00,,---,0.01,40.00,VWS V14.00,2013-09-15 11:30:00,
2013-09-15 07:31:00,42.3,41.8,30.17,ESE,108,0.0,0.0,98,0.00,,---,0.01,46.00,VWS V14.00,2013-09-15 11:31:00,
2013-09-15 07:32:00,42.3,41.8,30.17,ESE,108,0.0,0.0,98,0.00,,---,0.01,54.00,VWS V14.00,2013-09-15 11:32:00,
2013-09-15 07:33:00,42.3,41.8,30.17,ESE,108,0.0,0.0,98,0.00,,---,0.01,56.00,VWS V14.00,2013-09-15 11:33:00,
2013-09-15 07:34:00,42.4,41.9,30.18,ESE,108,0.0,0.0,98,0.00,,---,0.01,58.00,VWS V14.00,2013-09-15 11:34:00,
2013-09-15 07:35:00,42.4,42.1,30.18,ESE,108,0.0,0.0,99,0.00,,---,0.01,58.00,VWS V14.00,2013-09-15 11:35:00,
2013-09-15 07:36:00,42.4,42.1,30.17,ESE,108,0.0,0.0,99,0.00,,---,0.01,63.00,VWS V14.00,2013-09-15 11:36:00,
2013-09-15 07:37:00,42.5,42.2,30.17,ESE,108,0.0,0.0,99,0.00,,---,0.01,67.00,VWS V14.00,2013-09-15 11:37:00,
2013-09-15 07:38:00,42.5,42.0,30.18,ESE,108,0.0,0.0,98,0.00,,---,0.01,67.00,VWS V14.00,2013-09-15 11:38:00,
2013-09-15 07:39:00,42.5,42.2,30.18,ESE,108,0.0,0.0,99,0.00,,---,0.01,70.00,VWS V14.00,2013-09-15 11:39:00,
2013-09-15 07:40:00,42.5,42.2,30.17,ESE,108,0.0,0.0,99,0.00,,---,0.01,65.00,VWS V14.00,2013-09-15 11:40:00,
2013-09-15 07:41:00,42.6,42.3,30.17,ESE,108,0.0,0.0,99,0.00,,---,0.01,67.00,VWS V14.00,2013-09-15 11:41:00,
2013-09-15 07:42:00,42.7,42.4,30.18,ESE,108,0.0,0.0,99,0.00,,---,0.01,81.00,VWS V14.00,2013-09-15 11:42:00,
2013-09-15 07:43:00,42.7,42.4,30.18,ESE,108,0.0,0.0,99,0.00,,---,0.01,77.00,VWS V14.00,2013-09-15 11:43:00,
2013-09-15 07:44:00,42.7,42.4,30.17,ESE,108,0.0,0.0,99,0.00,,---,0.01,79.00,VWS V14.00,2013-09-15 11:44:00,
2013-09-15 07:45:00,42.7,42.4,30.17,ESE,108,0.0,0.0,99,0.00,,---,0.01,77.00,VWS V14.00,2013-09-15 11:45:00,
2013-09-15 07:46:00,42.8,42.5,30.17,ESE,108,0.0,0.0,99,0.00,,---,0.01,62.00,VWS V14.00,2013-09-15 11:46:00,
2013-09-15 07:47:00,42.8,42.5,30.17,ESE,108,0.0,0.0,99,0.00,,---,0.01,56.00,VWS V14.00,2013-09-15 11:47:00,
2013-09-15 07:48:00,42.8,42.5,30.17,ESE,108,0.0,0.0,99,0.00,,---,0.01,63.00,VWS V14.00,2013-09-15 11:48:00,
2013-09-15 07:49:00,42.9,42.6,30.17,ESE,108,0.0,0.0,99,0.00,,---,0.01,86.00,VWS V14.00,2013-09-15 11:49:00,
2013-09-15 07:50:00,42.9,42.6,30.17,ESE,108,0.0,0.0,99,0.00,,---,0.01,90.00,VWS V14.00,2013-09-15 11:50:00,
2013-09-15 07:51:00,43.0,42.7,30.17,ESE,108,0.0,0.0,99,0.00,,---,0.01,91.00,VWS V14.00,2013-09-15 11:51:00,
2013-09-15 07:52:00,43.0,42.7,30.17,ESE,108,0.0,0.0,99,0.00,,---,0.01,98.00,VWS V14.00,2013-09-15 11:52:00,
2013-09-15 07:53:00,43.1,42.8,30.17,ESE,108,0.0,0.0,99,0.00,,---,0.01,97.00,VWS V14.00,2013-09-15 11:53:00,
2013-09-15 07:54:00,43.1,42.8,30.17,ESE,108,0.0,0.0,99,0.00,,---,0.01,102.00,VWS V14.00,2013-09-15 11:54:00,
2013-09-15 07:55:00,43.2,42.9,30.17,ESE,108,0.0,0.0,99,0.00,,---,0.01,104.00,VWS V14.00,2013-09-15 11:55:00,
2013-09-15 07:56:00,43.2,42.9,30.17,ESE,108,0.0,0.0,99,0.00,,---,0.01,107.00,VWS V14.00,2013-09-15 11:56:00,
2013-09-15 07:57:00,43.3,43.0,30.17,ESE,108,0.0,0.0,99,0.00,,---,0.01,114.00,VWS V14.00,2013-09-15 11:57:00,
2013-09-15 07:58:00,43.4,43.1,30.17,ESE,108,0.0,0.0,99,0.00,,---,0.01,125.00,VWS V14.00,2013-09-15 11:58:00,
2013-09-15 07:59:00,43.5,43.2,30.17,ESE,108,0.0,0.0,99,0.00,,---,0.01,127.00,VWS V14.00,2013-09-15 11:59:00,
2013-09-15 08:00:00,43.6,43.3,30.17,ESE,108,0.0,0.0,99,0.00,,---,0.01,118.00,VWS V14.00,2013-09-15 12:00:00,
2013-09-15 08:01:00,43.6,43.3,30.18,ESE,108,0.0,0.0,99,0.00,,---,0.01,109.00,VWS V14.00,2013-09-15 12:01:00,
2013-09-15 08:02:00,43.7,43.4,30.17,ESE,108,0.0,0.0,99,0.00,,---,0.01,118.00,VWS V14.00,2013-09-15 12:02:00,
2013-09-15 08:03:00,43.7,43.4,30.17,ESE,108,0.0,0.0,99,0.00,,---,0.01,128.00,VWS V14.00,2013-09-15 12:03:00,
2013-09-15 08:04:00,43.8,43.5,30.17,ESE,108,0.0,0.0,99,0.00,,---,0.01,130.00,VWS V14.00,2013-09-15 12:04:00,
2013-09-15 08:05:00,43.8,43.5,30.17,ESE,108,0.0,0.0,99,0.00,,---,0.01,132.00,VWS V14.00,2013-09-15 12:05:00,
2013-09-15 08:06:00,43.9,43.6,30.17,ESE,108,0.0,0.0,99,0.00,,---,0.01,137.00,VWS V14.00,2013-09-15 12:06:00,
2013-09-15 08:07:00,43.9,43.6,30.17,ESE,108,0.0,0.0,99,0.00,,---,0.01,158.00,VWS V14.00,2013-09-15 12:07:00,
2013-09-15 08:08:00,44.0,43.7,30.17,ESE,108,0.0,0.0,99,0.00,,---,0.01,144.00,VWS V14.00,2013-09-15 12:08:00,
2013-09-15 08:09:00,44.0,43.7,30.17,ESE,108,0.0,0.0,99,0.00,,---,0.01,132.00,VWS V14.00,2013-09-15 12:09:00,
2013-09-15 08:10:00,44.1,43.8,30.18,ESE,108,0.0,0.0,99,0.00,,---,0.01,139.00,VWS V14.00,2013-09-15 12:10:00,
2013-09-15 08:11:00,44.2,43.9,30.18,ESE,108,0.0,0.0,99,0.00,,---,0.01,135.00,VWS V14.00,2013-09-15 12:11:00,
2013-09-15 08:12:00,44.2,43.9,30.18,ESE,108,0.0,0.0,99,0.00,,---,0.01,146.00,VWS V14.00,2013-09-15 12:12:00,
2013-09-15 08:13:00,44.3,44.0,30.18,ESE,108,0.0,0.0,99,0.00,,---,0.01,162.00,VWS V14.00,2013-09-15 12:13:00,
2013-09-15 08:14:00,44.3,44.0,30.18,ESE,108,0.0,0.0,99,0.00,,---,0.01,169.00,VWS V14.00,2013-09-15 12:14:00,
2013-09-15 08:15:00,44.3,44.0,30.18,ESE,108,0.0,0.0,99,0.00,,---,0.01,165.00,VWS V14.00,2013-09-15 12:15:00,
2013-09-15 08:16:00,44.4,44.1,30.18,ESE,108,0.0,0.0,99,0.00,,---,0.01,169.00,VWS V14.00,2013-09-15 12:16:00,
2013-09-15 08:17:00,44.4,44.1,30.18,ESE,108,0.0,0.0,99,0.00,,---,0.01,178.00,VWS V14.00,2013-09-15 12:17:00,
2013-09-15 08:18:00,44.5,44.2,30.18,ESE,108,0.0,0.0,99,0.00,,---,0.01,178.00,VWS V14.00,2013-09-15 12:18:00,
2013-09-15 08:19:00,44.5,44.2,30.18,ESE,108,0.0,0.0,99,0.00,,---,0.01,171.00,VWS V14.00,2013-09-15 12:19:00,
2013-09-15 08:20:00,44.6,44.3,30.18,ESE,108,0.0,0.0,99,0.00,,---,0.01,178.00,VWS V14.00,2013-09-15 12:20:00,
2013-09-15 08:21:00,44.6,44.3,30.18,ESE,108,0.0,0.0,99,0.00,,---,0.01,148.00,VWS V14.00,2013-09-15 12:21:00,
2013-09-15 08:22:00,44.7,44.4,30.18,ESE,108,0.0,0.0,99,0.00,,---,0.01,142.00,VWS V14.00,2013-09-15 12:22:00,
2013-09-15 08:23:00,44.7,44.4,30.17,ESE,108,0.0,0.0,99,0.00,,---,0.01,155.00,VWS V14.00,2013-09-15 12:23:00,
2013-09-15 08:24:00,44.8,44.5,30.17,ESE,108,0.0,0.0,99,0.00,,---,0.01,144.00,VWS V14.00,2013-09-15 12:24:00,
2013-09-15 08:25:00,44.8,44.5,30.17,ESE,108,0.0,0.0,99,0.00,,---,0.01,155.00,VWS V14.00,2013-09-15 12:25:00,
2013-09-15 08:26:00,44.9,44.6,30.17,ESE,108,0.0,0.0,99,0.00,,---,0.01,153.00,VWS V14.00,2013-09-15 12:26:00,
2013-09-15 08:27:00,45.1,44.8,30.18,ESE,108,0.0,0.0,99,0.00,,---,0.01,151.00,VWS V14.00,2013-09-15 12:27:00,
2013-09-15 08:28:00,45.1,44.8,30.17,ESE,108,0.0,0.0,99,0.00,,---,0.01,142.00,VWS V14.00,2013-09-15 12:28:00,
2013-09-15 08:29:00,45.2,44.9,30.18,ESE,108,0.0,0.0,99,0.00,,---,0.01,151.00,VWS V14.00,2013-09-15 12:29:00,
2013-09-15 08:30:00,45.3,45.0,30.18,ESE,108,0.0,0.0,99,0.00,,---,0.01,199.00,VWS V14.00,2013-09-15 12:30:00,
2013-09-15 08:31:00,45.4,45.1,30.18,ESE,108,0.0,0.0,99,0.00,,---,0.01,220.00,VWS V14.00,2013-09-15 12:31:00,
2013-09-15 08:32:00,45.5,45.2,30.18,ESE,108,0.0,0.0,99,0.00,,---,0.01,209.00,VWS V14.00,2013-09-15 12:32:00,
2013-09-15 08:33:00,45.6,45.3,30.18,ESE,108,0.0,0.0,99,0.00,,---,0.01,209.00,VWS V14.00,2013-09-15 12:33:00,
2013-09-15 08:34:00,45.7,45.4,30.18,ESE,108,0.0,0.0,99,0.00,,---,0.01,188.00,VWS V14.00,2013-09-15 12:34:00,
2013-09-15 08:35:00,45.8,45.5,30.18,ESE,108,0.0,0.0,99,0.00,,---,0.01,185.00,VWS V14.00,2013-09-15 12:35:00,
2013-09-15 08:36:00,45.8,45.5,30.18,ESE,108,0.0,0.0,99,0.00,,---,0.01,207.00,VWS V14.00,2013-09-15 12:36:00,
2013-09-15 08:37:00,45.8,45.5,30.18,ESE,108,0.0,0.0,99,0.00,,---,0.01,221.00,VWS V14.00,2013-09-15 12:37:00,
2013-09-15 08:38:00,45.9,45.6,30.18,ESE,108,0.0,0.0,99,0.00,,---,0.01,239.00,VWS V14.00,2013-09-15 12:38:00,
2013-09-15 08:39:00,46.0,45.7,30.18,ESE,108,0.0,0.0,99,0.00,,---,0.01,218.00,VWS V14.00,2013-09-15 12:39:00,
2013-09-15 08:40:00,46.1,45.8,30.18,ESE,108,0.0,0.0,99,0.00,,---,0.01,207.00,VWS V14.00,2013-09-15 12:40:00,
2013-09-15 08:41:00,46.1,45.8,30.18,ESE,108,0.0,0.0,99,0.00,,---,0.01,255.00,VWS V14.00,2013-09-15 12:41:00,
2013-09-15 08:42:00,46.2,45.9,30.18,ESE,108,0.0,0.0,99,0.00,,---,0.01,274.00,VWS V14.00,2013-09-15 12:42:00,
2013-09-15 08:43:00,46.3,46.0,30.18,ESE,108,0.0,0.0,99,0.00,,---,0.01,260.00,VWS V14.00,2013-09-15 12:43:00,
2013-09-15 08:44:00,46.4,46.1,30.18,ESE,108,0.0,0.0,99,0.00,,---,0.01,294.00,VWS V14.00,2013-09-15 12:44:00,
2013-09-15 08:45:00,46.5,46.2,30.18,ESE,108,0.0,0.0,99,0.00,,---,0.01,320.00,VWS V14.00,2013-09-15 12:45:00,
2013-09-15 08:46:00,46.6,46.3,30.18,ESE,108,0.0,0.0,99,0.00,,---,0.01,260.00,VWS V14.00,2013-09-15 12:46:00,
2013-09-15 08:47:00,46.7,46.4,30.18,ESE,108,0.0,0.0,99,0.00,,---,0.01,308.00,VWS V14.00,2013-09-15 12:47:00,
2013-09-15 08:48:00,46.9,46.6,30.18,ESE,108,0.0,0.0,99,0.00,,---,0.01,251.00,VWS V14.00,2013-09-15 12:48:00,
2013-09-15 08:49:00,46.9,46.6,30.18,ESE,108,0.0,0.0,99,0.00,,---,0.01,232.00,VWS V14.00,2013-09-15 12:49:00,
2013-09-15 08:50:00,47.1,46.8,30.18,North,10,0.0,0.0,99,0.00,,---,0.01,251.00,VWS V14.00,2013-09-15 12:50:00,
2013-09-15 08:51:00,47.2,46.9,30.18,North,10,0.0,1.0,99,0.00,,---,0.01,276.00,VWS V14.00,2013-09-15 12:51:00,
2013-09-15 08:52:00,47.4,47.1,30.18,North,10,0.0,2.0,99,0.00,,---,0.01,285.00,VWS V14.00,2013-09-15 12:52:00,
2013-09-15 08:53:00,47.4,47.1,30.18,North,10,0.0,2.0,99,0.00,,---,0.01,278.00,VWS V14.00,2013-09-15 12:53:00,
2013-09-15 08:54:00,47.5,47.2,30.18,North,10,0.0,2.0,99,0.00,,---,0.01,237.00,VWS V14.00,2013-09-15 12:54:00,
2013-09-15 08:55:00,47.5,47.2,30.18,NNW,346,1.0,2.0,99,0.00,,---,0.01,236.00,VWS V14.00,2013-09-15 12:55:00,
2013-09-15 08:56:00,47.6,47.3,30.18,NNW,346,0.0,2.0,99,0.00,,---,0.01,258.00,VWS V14.00,2013-09-15 12:56:00,
2013-09-15 08:57:00,47.6,47.3,30.18,NNW,346,0.0,2.0,99,0.00,,---,0.01,227.00,VWS V14.00,2013-09-15 12:57:00,
2013-09-15 08:58:00,47.6,47.3,30.18,NNW,346,0.0,2.0,99,0.00,,---,0.01,234.00,VWS V14.00,2013-09-15 12:58:00,
2013-09-15 08:59:00,47.6,47.3,30.18,NNW,346,2.0,2.0,99,0.00,,---,0.01,241.00,VWS V14.00,2013-09-15 12:59:00,
2013-09-15 09:00:00,47.7,47.4,30.18,NNW,346,0.0,2.0,99,0.00,,---,0.01,251.00,VWS V14.00,2013-09-15 13:00:00,
2013-09-15 09:01:00,47.8,47.5,30.18,NNW,346,0.0,0.0,99,0.00,,---,0.01,272.00,VWS V14.00,2013-09-15 13:01:00,
2013-09-15 09:02:00,47.8,47.5,30.18,NNW,346,0.0,0.0,99,0.00,,---,0.01,269.00,VWS V14.00,2013-09-15 13:02:00,
2013-09-15 09:03:00,47.9,47.6,30.18,NNW,346,0.0,0.0,99,0.00,,---,0.01,237.00,VWS V14.00,2013-09-15 13:03:00,
2013-09-15 09:04:00,47.9,47.6,30.18,NNW,346,0.0,1.0,99,0.00,,---,0.01,244.00,VWS V14.00,2013-09-15 13:04:00,
2013-09-15 09:05:00,48.0,47.7,30.18,NNW,346,0.0,1.0,99,0.00,,---,0.01,318.00,VWS V14.00,2013-09-15 13:05:00,
2013-09-15 09:06:00,48.1,47.8,30.18,NNW,346,0.0,1.0,99,0.00,,---,0.01,318.00,VWS V14.00,2013-09-15 13:06:00,
2013-09-15 09:07:00,48.1,47.8,30.18,NNW,346,0.0,1.0,99,0.00,,---,0.01,318.00,VWS V14.00,2013-09-15 13:07:00,
2013-09-15 09:08:00,48.2,47.9,30.18,NNW,346,0.0,1.0,99,0.00,,---,0.01,352.00,VWS V14.00,2013-09-15 13:08:00,
2013-09-15 09:09:00,48.3,48.0,30.18,NNW,346,0.0,1.0,99,0.00,,---,0.01,352.00,VWS V14.00,2013-09-15 13:09:00,
2013-09-15 09:10:00,48.5,48.2,30.18,NNW,346,0.0,1.0,99,0.00,,---,0.01,260.00,VWS V14.00,2013-09-15 13:10:00,
2013-09-15 09:11:00,48.5,48.2,30.18,NNW,346,0.0,1.0,99,0.00,,---,0.01,204.00,VWS V14.00,2013-09-15 13:11:00,
2013-09-15 09:12:00,48.6,48.3,30.18,NNW,346,0.0,1.0,99,0.00,,---,0.01,172.00,VWS V14.00,2013-09-15 13:12:00,
2013-09-15 09:13:00,48.7,48.4,30.18,NNW,346,0.0,1.0,99,0.00,,---,0.01,165.00,VWS V14.00,2013-09-15 13:13:00,
2013-09-15 09:14:00,48.8,48.5,30.18,NNW,346,0.0,1.0,99,0.00,,---,0.01,183.00,VWS V14.00,2013-09-15 13:14:00,
2013-09-15 09:15:00,48.9,48.6,30.18,NNW,346,0.0,1.0,99,0.00,,---,0.01,167.00,VWS V14.00,2013-09-15 13:15:00,
2013-09-15 09:16:00,48.9,48.6,30.18,NNW,346,0.0,1.0,99,0.00,,---,0.01,163.00,VWS V14.00,2013-09-15 13:16:00,
2013-09-15 09:17:00,49.0,48.7,30.18,NNW,346,0.0,1.0,99,0.00,,---,0.01,174.00,VWS V14.00,2013-09-15 13:17:00,
2013-09-15 09:18:00,49.0,48.7,30.18,NNW,346,0.0,1.0,99,0.00,,---,0.01,227.00,VWS V14.00,2013-09-15 13:18:00,
2013-09-15 09:19:00,49.0,48.7,30.18,NNW,346,0.0,1.0,99,0.00,,---,0.01,232.00,VWS V14.00,2013-09-15 13:19:00,
2013-09-15 09:20:00,49.0,48.7,30.18,NNW,347,0.0,1.0,99,0.00,,---,0.01,248.00,VWS V14.00,2013-09-15 13:20:00,
2013-09-15 09:21:00,49.0,48.7,30.18,NNW,343,0.0,1.0,99,0.00,,---,0.01,248.00,VWS V14.00,2013-09-15 13:21:00,
2013-09-15 09:22:00,49.1,48.8,30.18,NNW,343,0.0,1.0,99,0.00,,---,0.01,446.00,VWS V14.00,2013-09-15 13:22:00,
2013-09-15 09:23:00,49.2,48.9,30.18,NNW,343,0.0,1.0,99,0.00,,---,0.01,446.00,VWS V14.00,2013-09-15 13:23:00,
2013-09-15 09:24:00,49.3,49.0,30.18,NNW,343,0.0,1.0,99,0.00,,---,0.01,417.00,VWS V14.00,2013-09-15 13:24:00,
2013-09-15 09:25:00,49.5,49.2,30.18,NNW,343,0.0,1.0,99,0.00,,---,0.01,413.00,VWS V14.00,2013-09-15 13:25:00,
2013-09-15 09:26:00,49.7,49.4,30.18,NNW,343,0.0,1.0,99,0.00,,---,0.01,418.00,VWS V14.00,2013-09-15 13:26:00,
2013-09-15 09:27:00,50.0,49.7,30.18,NNW,343,0.0,1.0,99,0.00,,---,0.01,418.00,VWS V14.00,2013-09-15 13:27:00,
2013-09-15 09:28:00,50.2,49.9,30.18,NNW,343,0.0,1.0,99,0.00,,---,0.01,445.00,VWS V14.00,2013-09-15 13:28:00,
2013-09-15 09:29:00,50.4,50.1,30.18,NNW,343,0.0,1.0,99,0.00,,---,0.01,434.00,VWS V14.00,2013-09-15 13:29:00,
2013-09-15 09:30:00,50.5,50.2,30.18,NNW,343,0.0,1.0,99,0.00,,---,0.01,411.00,VWS V14.00,2013-09-15 13:30:00,
2013-09-15 09:31:00,50.7,50.4,30.18,NNW,343,0.0,1.0,99,0.00,,---,0.01,457.00,VWS V14.00,2013-09-15 13:31:00,
2013-09-15 09:32:00,50.8,50.5,30.18,NNW,343,0.0,1.0,99,0.00,,---,0.01,438.00,VWS V14.00,2013-09-15 13:32:00,
2013-09-15 09:33:00,50.8,50.5,30.18,NNW,343,0.0,1.0,99,0.00,,---,0.01,448.00,VWS V14.00,2013-09-15 13:33:00,
2013-09-15 09:34:00,50.9,50.6,30.18,NNW,330,1.0,1.0,99,0.00,,---,0.01,464.00,VWS V14.00,2013-09-15 13:34:00,
2013-09-15 09:35:00,51.1,50.8,30.18,NNW,330,0.0,1.0,99,0.00,,---,0.01,480.00,VWS V14.00,2013-09-15 13:35:00,
2013-09-15 09:36:00,51.2,50.9,30.18,NNW,330,0.0,1.0,99,0.00,,---,0.01,497.00,VWS V14.00,2013-09-15 13:36:00,
2013-09-15 09:37:00,51.4,51.1,30.18,NNW,330,0.0,1.0,99,0.00,,---,0.01,520.00,VWS V14.00,2013-09-15 13:37:00,
2013-09-15 09:38:00,51.5,51.2,30.18,NW,323,2.0,2.0,99,0.00,,---,0.01,508.00,VWS V14.00,2013-09-15 13:38:00,
2013-09-15 09:39:00,51.7,51.4,30.18,NW,324,0.0,2.0,99,0.00,,---,0.01,527.00,VWS V14.00,2013-09-15 13:39:00,
2013-09-15 09:40:00,51.8,51.5,30.18,NW,324,1.0,2.0,99,0.00,,---,0.01,522.00,VWS V14.00,2013-09-15 13:40:00,
2013-09-15 09:41:00,52.0,51.7,30.18,NW,325,0.0,2.0,99,0.00,,---,0.01,508.00,VWS V14.00,2013-09-15 13:41:00,
2013-09-15 09:42:00,52.1,51.8,30.18,NW,325,0.0,2.0,99,0.00,,---,0.01,508.00,VWS V14.00,2013-09-15 13:42:00,
2013-09-15 09:43:00,52.1,51.8,30.18,NNW,327,2.0,2.0,99,0.00,,---,0.01,489.00,VWS V14.00,2013-09-15 13:43:00,
2013-09-15 09:44:00,52.1,51.8,30.18,NE,38,2.0,4.0,99,0.00,,---,0.01,503.00,VWS V14.00,2013-09-15 13:44:00,
2013-09-15 09:45:00,52.1,51.8,30.18,NE,38,0.0,4.0,99,0.00,,---,0.01,524.00,VWS V14.00,2013-09-15 13:45:00,
2013-09-15 09:46:00,52.2,51.9,30.18,NE,37,0.0,4.0,99,0.00,,---,0.01,503.00,VWS V14.00,2013-09-15 13:46:00,
2013-09-15 09:47:00,52.2,51.9,30.18,NE,37,0.0,4.0,99,0.00,,---,0.01,468.00,VWS V14.00,2013-09-15 13:47:00,
2013-09-15 09:48:00,52.2,51.9,30.18,NE,37,0.0,4.0,99,0.00,,---,0.01,417.00,VWS V14.00,2013-09-15 13:48:00,
2013-09-15 09:49:00,52.2,51.9,30.18,NNW,331,0.0,4.0,99,0.00,,---,0.01,418.00,VWS V14.00,2013-09-15 13:49:00,
2013-09-15 09:50:00,52.3,52.0,30.18,NNW,331,0.0,4.0,99,0.00,,---,0.01,506.00,VWS V14.00,2013-09-15 13:50:00,
2013-09-15 09:51:00,52.4,52.1,30.18,NNW,331,0.0,4.0,99,0.00,,---,0.01,548.00,VWS V14.00,2013-09-15 13:51:00,
2013-09-15 09:52:00,52.6,52.3,30.18,North,5,0.0,4.0,99,0.00,,---,0.01,508.00,VWS V14.00,2013-09-15 13:52:00,
2013-09-15 09:53:00,52.8,52.5,30.18,North,5,0.0,4.0,99,0.00,,---,0.01,584.00,VWS V14.00,2013-09-15 13:53:00,
2013-09-15 09:54:00,53.0,53.0,30.18,North,5,0.0,4.0,100,0.00,,---,0.01,592.00,VWS V14.00,2013-09-15 13:54:00,
2013-09-15 09:55:00,53.1,53.1,30.18,North,5,0.0,4.0,100,0.00,,---,0.01,578.00,VWS V14.00,2013-09-15 13:55:00,
2013-09-15 09:56:00,53.3,53.0,30.18,North,5,0.0,4.0,99,0.00,,---,0.01,483.00,VWS V14.00,2013-09-15 13:56:00,
2013-09-15 09:57:00,53.4,53.4,30.18,North,5,0.0,4.0,100,0.00,,---,0.01,566.00,VWS V14.00,2013-09-15 13:57:00,
2013-09-15 09:58:00,53.6,53.6,30.18,North,5,0.0,4.0,100,0.00,,---,0.01,499.00,VWS V14.00,2013-09-15 13:58:00,
2013-09-15 09:59:00,53.7,53.4,30.18,North,5,0.0,4.0,99,0.00,,---,0.01,434.00,VWS V14.00,2013-09-15 13:59:00,
2013-09-15 10:00:00,53.9,53.6,30.18,North,5,0.0,4.0,99,0.00,,---,0.01,448.00,VWS V14.00,2013-09-15 14:00:00,
2013-09-15 10:01:00,54.0,53.7,30.18,North,5,0.0,0.0,99,0.00,,---,0.01,436.00,VWS V14.00,2013-09-15 14:01:00,
2013-09-15 10:02:00,54.0,54.0,30.18,North,5,0.0,0.0,100,0.00,,---,0.01,353.00,VWS V14.00,2013-09-15 14:02:00,
2013-09-15 10:03:00,54.1,54.1,30.18,North,5,0.0,0.0,100,0.00,,---,0.01,378.00,VWS V14.00,2013-09-15 14:03:00,
2013-09-15 10:04:00,54.1,54.1,30.18,North,5,0.0,0.0,100,0.00,,---,0.01,450.00,VWS V14.00,2013-09-15 14:04:00,
2013-09-15 10:05:00,54.2,54.2,30.17,North,5,0.0,0.0,100,0.00,,---,0.01,468.00,VWS V14.00,2013-09-15 14:05:00,
2013-09-15 10:06:00,54.4,54.1,30.17,North,5,0.0,0.0,99,0.00,,---,0.01,466.00,VWS V14.00,2013-09-15 14:06:00,
2013-09-15 10:07:00,54.4,54.1,30.17,North,5,0.0,0.0,99,0.00,,---,0.01,452.00,VWS V14.00,2013-09-15 14:07:00,
2013-09-15 10:08:00,54.5,54.2,30.17,North,5,0.0,0.0,99,0.00,,---,0.01,411.00,VWS V14.00,2013-09-15 14:08:00,
2013-09-15 10:09:00,54.6,54.3,30.17,North,5,0.0,0.0,99,0.00,,---,0.01,325.00,VWS V14.00,2013-09-15 14:09:00,
2013-09-15 10:10:00,54.6,54.6,30.17,North,5,0.0,0.0,100,0.00,,---,0.01,323.00,VWS V14.00,2013-09-15 14:10:00,
2013-09-15 10:11:00,54.7,54.7,30.17,NNE,17,0.0,2.0,100,0.00,,---,0.01,476.00,VWS V14.00,2013-09-15 14:11:00,
2013-09-15 10:12:00,54.8,54.8,30.17,NNE,17,0.0,2.0,100,0.00,,---,0.01,439.00,VWS V14.00,2013-09-15 14:12:00,
2013-09-15 10:13:00,54.8,54.8,30.17,NNE,17,0.0,2.0,100,0.00,,---,0.01,392.00,VWS V14.00,2013-09-15 14:13:00,
2013-09-15 10:14:00,54.8,54.5,30.17,NNE,17,0.0,2.0,99,0.00,,---,0.01,396.00,VWS V14.00,2013-09-15 14:14:00,
2013-09-15 10:15:00,54.9,54.6,30.17,NNE,17,0.0,2.0,99,0.00,,---,0.01,450.00,VWS V14.00,2013-09-15 14:15:00,
2013-09-15 10:16:00,55.0,54.7,30.17,NNE,17,0.0,2.0,99,0.00,,---,0.01,450.00,VWS V14.00,2013-09-15 14:16:00,
2013-09-15 10:17:00,55.1,54.8,30.17,NNE,17,0.0,2.0,99,0.00,,---,0.01,584.00,VWS V14.00,2013-09-15 14:17:00,
2013-09-15 10:18:00,55.2,55.2,30.17,NNE,17,0.0,2.0,100,0.00,,---,0.01,540.00,VWS V14.00,2013-09-15 14:18:00,
2013-09-15 10:19:00,55.4,55.1,30.17,NNE,17,0.0,2.0,99,0.00,,---,0.01,461.00,VWS V14.00,2013-09-15 14:19:00,
2013-09-15 10:20:00,55.5,55.2,30.17,NNE,17,0.0,2.0,99,0.00,,---,0.01,497.00,VWS V14.00,2013-09-15 14:20:00,
2013-09-15 10:21:00,55.5,55.2,30.17,NNE,17,0.0,2.0,99,0.00,,---,0.01,485.00,VWS V14.00,2013-09-15 14:21:00,
2013-09-15 10:22:00,55.6,55.3,30.17,NNE,17,0.0,2.0,99,0.00,,---,0.01,512.00,VWS V14.00,2013-09-15 14:22:00,
2013-09-15 10:23:00,55.7,55.4,30.17,NNE,17,0.0,2.0,99,0.00,,---,0.01,559.00,VWS V14.00,2013-09-15 14:23:00,
2013-09-15 10:24:00,55.9,55.6,30.17,North,10,0.0,2.0,99,0.00,,---,0.01,610.00,VWS V14.00,2013-09-15 14:24:00,
2013-09-15 10:25:00,56.0,55.7,30.17,North,11,0.0,2.0,99,0.00,,---,0.01,547.00,VWS V14.00,2013-09-15 14:25:00,
2013-09-15 10:26:00,56.0,55.7,30.17,NNE,24,0.0,4.0,99,0.00,,---,0.01,552.00,VWS V14.00,2013-09-15 14:26:00,
2013-09-15 10:27:00,56.2,55.9,30.17,NNE,24,0.0,4.0,99,0.00,,---,0.01,622.00,VWS V14.00,2013-09-15 14:27:00,
2013-09-15 10:28:00,56.4,56.1,30.17,NNE,24,1.0,4.0,99,0.00,,---,0.01,615.00,VWS V14.00,2013-09-15 14:28:00,
2013-09-15 10:29:00,56.5,56.2,30.17,NNE,24,0.0,4.0,99,0.00,,---,0.01,664.00,VWS V14.00,2013-09-15 14:29:00,
2013-09-15 10:30:00,56.6,56.0,30.17,NNE,24,0.0,4.0,98,0.00,,---,0.01,659.00,VWS V14.00,2013-09-15 14:30:00,
2013-09-15 10:31:00,56.8,56.2,30.17,NNE,24,0.0,1.0,98,0.00,,---,0.01,592.00,VWS V14.00,2013-09-15 14:31:00,
2013-09-15 10:32:00,56.9,56.3,30.17,NNE,24,0.0,1.0,98,0.00,,---,0.01,687.00,VWS V14.00,2013-09-15 14:32:00,
2013-09-15 10:33:00,57.0,56.2,30.17,NNE,24,0.0,1.0,97,0.00,,---,0.01,647.00,VWS V14.00,2013-09-15 14:33:00,
2013-09-15 10:34:00,57.2,56.4,30.17,NNE,15,0.0,2.0,97,0.00,,---,0.01,779.00,VWS V14.00,2013-09-15 14:34:00,
2013-09-15 10:35:00,57.3,56.2,30.17,NNW,344,2.0,5.0,96,0.00,,---,0.01,810.00,VWS V14.00,2013-09-15 14:35:00,
2013-09-15 10:36:00,57.4,56.0,30.17,North,355,1.0,5.0,95,0.00,,---,0.01,780.00,VWS V14.00,2013-09-15 14:36:00,
2013-09-15 10:37:00,57.5,55.8,30.17,NNW,334,2.0,5.0,94,0.00,,---,0.01,712.00,VWS V14.00,2013-09-15 14:37:00,
2013-09-15 10:38:00,57.7,56.0,30.17,NW,323,4.0,5.0,94,0.00,,---,0.01,696.00,VWS V14.00,2013-09-15 14:38:00,
2013-09-15 10:39:00,57.8,55.8,30.17,NW,323,0.0,5.0,93,0.00,,---,0.01,645.00,VWS V14.00,2013-09-15 14:39:00,
2013-09-15 10:40:00,57.9,55.9,30.17,NNW,335,1.0,5.0,93,0.00,,---,0.01,701.00,VWS V14.00,2013-09-15 14:40:00,
2013-09-15 10:41:00,58.0,56.0,30.17,NNW,338,0.0,5.0,93,0.00,,---,0.01,701.00,VWS V14.00,2013-09-15 14:41:00,
2013-09-15 10:42:00,58.1,56.1,30.17,NNW,338,1.0,5.0,93,0.00,,---,0.01,531.00,VWS V14.00,2013-09-15 14:42:00,
2013-09-15 10:43:00,58.2,55.9,30.17,NNW,338,0.0,5.0,92,0.00,,---,0.01,531.00,VWS V14.00,2013-09-15 14:43:00,
2013-09-15 10:44:00,58.3,55.7,30.17,NNW,338,0.0,5.0,91,0.00,,---,0.01,313.00,VWS V14.00,2013-09-15 14:44:00,
2013-09-15 10:45:00,58.4,55.8,30.17,NNW,338,0.0,5.0,91,0.00,,---,0.01,373.00,VWS V14.00,2013-09-15 14:45:00,
2013-09-15 10:46:00,58.5,55.6,30.17,NNW,338,0.0,5.0,90,0.00,,---,0.01,348.00,VWS V14.00,2013-09-15 14:46:00,
2013-09-15 10:47:00,58.5,55.6,30.17,NNW,338,0.0,5.0,90,0.00,,---,0.01,345.00,VWS V14.00,2013-09-15 14:47:00,
2013-09-15 10:48:00,58.6,55.7,30.17,NNW,338,0.0,5.0,90,0.00,,---,0.01,345.00,VWS V14.00,2013-09-15 14:48:00,
2013-09-15 10:49:00,58.6,55.4,30.17,NNW,338,0.0,5.0,89,0.00,,---,0.01,538.00,VWS V14.00,2013-09-15 14:49:00,
2013-09-15 10:50:00,58.7,55.5,30.17,NNW,338,0.0,5.0,89,0.00,,---,0.01,578.00,VWS V14.00,2013-09-15 14:50:00,
2013-09-15 10:51:00,58.8,55.9,30.17,NNW,338,0.0,5.0,90,0.00,,---,0.01,694.00,VWS V14.00,2013-09-15 14:51:00,
2013-09-15 10:52:00,58.9,56.0,30.17,NNW,338,0.0,5.0,90,0.00,,---,0.01,747.00,VWS V14.00,2013-09-15 14:52:00,
2013-09-15 10:53:00,59.1,56.2,30.17,NNW,338,0.0,5.0,90,0.00,,---,0.01,777.00,VWS V14.00,2013-09-15 14:53:00,
2013-09-15 10:54:00,59.3,56.4,30.17,NNW,338,0.0,5.0,90,0.00,,---,0.01,766.00,VWS V14.00,2013-09-15 14:54:00,
2013-09-15 10:55:00,59.5,56.6,30.17,NNW,338,0.0,5.0,90,0.00,,---,0.01,795.00,VWS V14.00,2013-09-15 14:55:00,
2013-09-15 10:56:00,59.7,56.5,30.17,NNW,338,0.0,5.0,89,0.00,,---,0.01,795.00,VWS V14.00,2013-09-15 14:56:00,
2013-09-15 10:57:00,60.0,56.4,30.17,NNW,338,0.0,5.0,88,0.00,,---,0.01,795.00,VWS V14.00,2013-09-15 14:57:00,
2013-09-15 10:58:00,60.2,57.0,30.17,ENE,63,0.0,5.0,89,0.00,,---,0.01,721.00,VWS V14.00,2013-09-15 14:58:00,
2013-09-15 10:59:00,60.4,56.5,30.17,ENE,76,1.0,5.0,87,0.00,,---,0.01,701.00,VWS V14.00,2013-09-15 14:59:00,
2013-09-15 11:00:00,60.6,56.1,30.17,East,80,0.0,5.0,85,0.00,,---,0.01,673.00,VWS V14.00,2013-09-15 15:00:00,
2013-09-15 11:01:00,60.8,56.3,30.17,East,82,2.0,3.0,85,0.00,,---,0.01,765.00,VWS V14.00,2013-09-15 15:01:00,
2013-09-15 11:02:00,61.0,55.8,30.17,East,82,2.0,3.0,83,0.00,,---,0.01,765.00,VWS V14.00,2013-09-15 15:02:00,
2013-09-15 11:03:00,61.1,55.9,30.16,East,82,0.0,3.0,83,0.00,,---,0.01,670.00,VWS V14.00,2013-09-15 15:03:00,
2013-09-15 11:04:00,61.2,56.3,30.16,East,82,0.0,3.0,84,0.00,,---,0.01,598.00,VWS V14.00,2013-09-15 15:04:00,
2013-09-15 11:05:00,61.4,56.2,30.16,East,82,0.0,3.0,83,0.00,,---,0.01,522.00,VWS V14.00,2013-09-15 15:05:00,
2013-09-15 11:06:00,61.5,56.0,30.16,East,82,0.0,3.0,82,0.00,,---,0.01,492.00,VWS V14.00,2013-09-15 15:06:00,
2013-09-15 11:07:00,61.6,56.1,30.16,East,83,1.0,3.0,82,0.00,,---,0.01,541.00,VWS V14.00,2013-09-15 15:07:00,
2013-09-15 11:08:00,61.8,56.6,30.16,East,83,0.0,3.0,83,0.00,,---,0.01,628.00,VWS V14.00,2013-09-15 15:08:00,
2013-09-15 11:09:00,62.0,57.5,30.16,East,83,0.0,3.0,85,0.00,,---,0.01,673.00,VWS V14.00,2013-09-15 15:09:00,
2013-09-15 11:10:00,62.1,57.5,30.16,East,83,0.0,3.0,85,0.00,,---,0.01,761.00,VWS V14.00,2013-09-15 15:10:00,
2013-09-15 11:11:00,62.3,57.7,30.16,East,85,1.0,3.0,85,0.00,,---,0.01,772.00,VWS V14.00,2013-09-15 15:11:00,
2013-09-15 11:12:00,62.4,56.8,30.16,East,85,0.0,3.0,82,0.00,,---,0.01,761.00,VWS V14.00,2013-09-15 15:12:00,
2013-09-15 11:13:00,62.6,57.0,30.16,East,85,0.0,3.0,82,0.00,,---,0.01,761.00,VWS V14.00,2013-09-15 15:13:00,
2013-09-15 11:14:00,62.7,56.5,30.16,East,85,0.0,3.0,80,0.00,,---,0.01,761.00,VWS V14.00,2013-09-15 15:14:00,
2013-09-15 11:15:00,62.9,57.0,30.16,East,85,0.0,3.0,81,0.00,,---,0.01,805.00,VWS V14.00,2013-09-15 15:15:00,
2013-09-15 11:16:00,63.0,56.7,30.16,East,85,0.0,3.0,80,0.00,,---,0.01,823.00,VWS V14.00,2013-09-15 15:16:00,
2013-09-15 11:17:00,63.2,57.3,30.16,East,85,0.0,3.0,81,0.00,,---,0.01,823.00,VWS V14.00,2013-09-15 15:17:00,
2013-09-15 11:18:00,63.4,57.1,30.16,East,85,0.0,3.0,80,0.00,,---,0.01,835.00,VWS V14.00,2013-09-15 15:18:00,
2013-09-15 11:19:00,63.5,56.9,30.16,East,84,0.0,3.0,79,0.00,,---,0.01,798.00,VWS V14.00,2013-09-15 15:19:00,
2013-09-15 11:20:00,63.7,57.4,30.16,ENE,68,3.0,3.0,80,0.00,,---,0.01,812.00,VWS V14.00,2013-09-15 15:20:00,
2013-09-15 11:21:00,63.8,57.5,30.16,ENE,65,0.0,3.0,80,0.00,,---,0.01,816.00,VWS V14.00,2013-09-15 15:21:00,
2013-09-15 11:22:00,63.9,57.6,30.15,ENE,65,0.0,3.0,80,0.00,,---,0.01,791.00,VWS V14.00,2013-09-15 15:22:00,
2013-09-15 11:23:00,64.0,58.1,30.15,ENE,65,0.0,3.0,81,0.00,,---,0.01,795.00,VWS V14.00,2013-09-15 15:23:00,
2013-09-15 11:24:00,64.1,57.5,30.15,SW,214,0.0,3.0,79,0.00,,---,0.01,812.00,VWS V14.00,2013-09-15 15:24:00,
2013-09-15 11:25:00,64.2,57.2,30.15,SSW,195,3.0,3.0,78,0.00,,---,0.01,810.00,VWS V14.00,2013-09-15 15:25:00,
2013-09-15 11:26:00,64.3,57.0,30.15,South,190,0.0,3.0,77,0.00,,---,0.01,793.00,VWS V14.00,2013-09-15 15:26:00,
2013-09-15 11:27:00,64.5,57.1,30.15,South,190,2.0,3.0,77,0.00,,---,0.01,759.00,VWS V14.00,2013-09-15 15:27:00,
2013-09-15 11:28:00,64.5,57.5,30.15,South,190,0.0,3.0,78,0.00,,---,0.01,766.00,VWS V14.00,2013-09-15 15:28:00,
2013-09-15 11:29:00,64.7,57.3,30.15,WSW,251,3.0,5.0,77,0.00,,---,0.01,756.00,VWS V14.00,2013-09-15 15:29:00,
2013-09-15 11:30:00,64.9,57.2,30.15,WSW,253,1.0,5.0,76,0.00,,---,0.01,747.00,VWS V14.00,2013-09-15 15:30:00,
2013-09-15 11:31:00,64.9,56.8,30.15,WSW,248,1.0,5.0,75,0.00,,---,0.01,663.00,VWS V14.00,2013-09-15 15:31:00,
2013-09-15 11:32:00,65.0,56.5,30.15,SSW,209,1.0,5.0,74,0.00,,---,0.01,471.00,VWS V14.00,2013-09-15 15:32:00,
2013-09-15 11:33:00,65.0,56.5,30.15,WSW,253,4.0,5.0,74,0.00,,---,0.01,455.00,VWS V14.00,2013-09-15 15:33:00,
2013-09-15 11:34:00,64.9,56.4,30.15,West,261,3.0,5.0,74,0.00,,---,0.01,376.00,VWS V14.00,2013-09-15 15:34:00,
2013-09-15 11:35:00,64.9,56.8,30.15,West,260,1.0,5.0,75,0.00,,---,0.01,364.00,VWS V14.00,2013-09-15 15:35:00,
2013-09-15 11:36:00,64.9,57.2,30.15,West,259,3.0,5.0,76,0.00,,---,0.01,364.00,VWS V14.00,2013-09-15 15:36:00,
2013-09-15 11:37:00,64.9,57.5,30.15,WSW,248,3.0,5.0,77,0.00,,---,0.01,364.00,VWS V14.00,2013-09-15 15:37:00,
2013-09-15 11:38:00,64.9,57.2,30.15,WSW,248,0.0,5.0,76,0.00,,---,0.01,817.00,VWS V14.00,2013-09-15 15:38:00,
2013-09-15 11:39:00,64.9,57.5,30.15,WSW,248,0.0,5.0,77,0.00,,---,0.01,775.00,VWS V14.00,2013-09-15 15:39:00,
2013-09-15 11:40:00,65.1,58.8,30.15,WSW,248,0.0,5.0,80,0.00,,---,0.01,823.00,VWS V14.00,2013-09-15 15:40:00,
2013-09-15 11:41:00,65.2,58.5,30.15,East,100,4.0,5.0,79,0.00,,---,0.01,763.00,VWS V14.00,2013-09-15 15:41:00,
2013-09-15 11:42:00,65.4,57.7,30.15,SE,141,4.0,5.0,76,0.00,,---,0.01,670.00,VWS V14.00,2013-09-15 15:42:00,
2013-09-15 11:43:00,65.6,56.7,30.14,SE,141,0.0,5.0,73,0.00,,---,0.01,717.00,VWS V14.00,2013-09-15 15:43:00,
2013-09-15 11:44:00,65.6,56.3,30.14,SE,141,0.0,5.0,72,0.00,,---,0.01,744.00,VWS V14.00,2013-09-15 15:44:00,
2013-09-15 11:45:00,65.7,56.8,30.15,SE,141,0.0,5.0,73,0.00,,---,0.01,740.00,VWS V14.00,2013-09-15 15:45:00,
2013-09-15 11:46:00,65.9,57.0,30.15,SE,140,0.0,5.0,73,0.00,,---,0.01,740.00,VWS V14.00,2013-09-15 15:46:00,
2013-09-15 11:47:00,66.0,57.5,30.15,ESE,119,1.0,5.0,74,0.00,,---,0.01,533.00,VWS V14.00,2013-09-15 15:47:00,
2013-09-15 11:48:00,66.1,57.2,30.15,East,101,4.0,6.0,73,0.00,,---,0.01,480.00,VWS V14.00,2013-09-15 15:48:00,
2013-09-15 11:49:00,66.3,57.4,30.15,SSW,204,1.0,6.0,73,0.00,,---,0.01,480.00,VWS V14.00,2013-09-15 15:49:00,
2013-09-15 11:50:00,66.4,58.6,30.15,South,191,0.0,6.0,76,0.00,,---,0.01,710.00,VWS V14.00,2013-09-15 15:50:00,
2013-09-15 11:51:00,66.5,57.2,30.15,SSW,211,2.0,6.0,72,0.00,,---,0.01,752.00,VWS V14.00,2013-09-15 15:51:00,
2013-09-15 11:52:00,66.6,57.7,30.15,ESE,114,2.0,6.0,73,0.00,,---,0.01,735.00,VWS V14.00,2013-09-15 15:52:00,
2013-09-15 11:53:00,66.7,57.4,30.15,ESE,117,0.0,6.0,72,0.00,,---,0.01,731.00,VWS V14.00,2013-09-15 15:53:00,
2013-09-15 11:54:00,66.8,56.7,30.15,SSE,153,1.0,6.0,70,0.00,,---,0.01,657.00,VWS V14.00,2013-09-15 15:54:00,
2013-09-15 11:55:00,66.9,56.4,30.14,West,272,6.0,6.0,69,0.00,,---,0.01,635.00,VWS V14.00,2013-09-15 15:55:00,
2013-09-15 11:56:00,67.0,57.3,30.14,ESE,114,5.0,8.0,71,0.00,,---,0.01,647.00,VWS V14.00,2013-09-15 15:56:00,
2013-09-15 11:57:00,67.0,56.5,30.14,SSE,151,4.0,8.0,69,0.00,,---,0.01,647.00,VWS V14.00,2013-09-15 15:57:00,
2013-09-15 11:58:00,67.0,56.5,30.13,South,182,0.0,8.0,69,0.00,,---,0.01,480.00,VWS V14.00,2013-09-15 15:58:00,
2013-09-15 11:59:00,67.0,57.3,30.13,South,183,0.0,8.0,71,0.00,,---,0.01,506.00,VWS V14.00,2013-09-15 15:59:00,
2013-09-15 12:00:00,67.0,58.1,30.13,South,180,2.0,8.0,73,0.00,,---,0.01,573.00,VWS V14.00,2013-09-15 16:00:00,
2013-09-15 12:01:00,67.0,56.5,30.14,South,180,0.0,2.0,69,0.00,,---,0.01,591.00,VWS V14.00,2013-09-15 16:01:00,
2013-09-15 12:02:00,67.0,56.1,30.13,ESE,119,2.0,4.0,68,0.00,,---,0.01,661.00,VWS V14.00,2013-09-15 16:02:00,
2013-09-15 12:03:00,67.0,55.7,30.13,ESE,113,2.0,4.0,67,0.00,,---,0.01,684.00,VWS V14.00,2013-09-15 16:03:00,
2013-09-15 12:04:00,67.0,56.9,30.13,ESE,108,0.0,5.0,70,0.00,,---,0.01,684.00,VWS V14.00,2013-09-15 16:04:00,
2013-09-15 12:05:00,67.1,57.0,30.13,ESE,117,0.0,5.0,70,0.00,,---,0.01,791.00,VWS V14.00,2013-09-15 16:05:00,
2013-09-15 12:06:00,67.1,58.5,30.14,SE,142,1.0,5.0,74,0.00,,---,0.01,756.00,VWS V14.00,2013-09-15 16:06:00,
2013-09-15 12:07:00,67.2,57.9,30.14,WSW,258,2.0,5.0,72,0.00,,---,0.01,719.00,VWS V14.00,2013-09-15 16:07:00,
2013-09-15 12:08:00,67.3,58.4,30.13,East,101,2.0,5.0,73,0.00,,---,0.01,710.00,VWS V14.00,2013-09-15 16:08:00,
2013-09-15 12:09:00,67.4,57.7,30.13,SE,142,0.0,5.0,71,0.00,,---,0.01,770.00,VWS V14.00,2013-09-15 16:09:00,
2013-09-15 12:10:00,67.5,58.5,30.13,SSE,148,0.0,5.0,73,0.00,,---,0.01,789.00,VWS V14.00,2013-09-15 16:10:00,
2013-09-15 12:11:00,67.6,57.5,30.13,SSE,157,0.0,5.0,70,0.00,,---,0.01,793.00,VWS V14.00,2013-09-15 16:11:00,
2013-09-15 12:12:00,67.7,57.2,30.13,SSE,157,0.0,5.0,69,0.00,,---,0.01,826.00,VWS V14.00,2013-09-15 16:12:00,
2013-09-15 12:13:00,67.8,57.7,30.13,SSE,156,0.0,5.0,70,0.00,,---,0.01,860.00,VWS V14.00,2013-09-15 16:13:00,
2013-09-15 12:14:00,67.9,57.8,30.13,SSE,156,0.0,5.0,70,0.00,,---,0.01,823.00,VWS V14.00,2013-09-15 16:14:00,
2013-09-15 12:15:00,68.1,58.0,30.13,ESE,105,2.0,5.0,70,0.00,,---,0.01,766.00,VWS V14.00,2013-09-15 16:15:00,
2013-09-15 12:16:00,68.2,58.0,30.13,SSW,199,2.0,5.0,70,0.00,,---,0.01,775.00,VWS V14.00,2013-09-15 16:16:00,
2013-09-15 12:17:00,68.4,58.2,30.13,SE,135,4.0,5.0,70,0.00,,---,0.01,726.00,VWS V14.00,2013-09-15 16:17:00,
2013-09-15 12:18:00,68.4,57.8,30.13,West,260,4.0,5.0,69,0.00,,---,0.01,686.00,VWS V14.00,2013-09-15 16:18:00,
2013-09-15 12:19:00,68.5,57.1,30.13,West,265,0.0,5.0,67,0.00,,---,0.01,682.00,VWS V14.00,2013-09-15 16:19:00,
2013-09-15 12:20:00,68.4,57.0,30.13,WNW,284,2.0,5.0,67,0.00,,---,0.01,682.00,VWS V14.00,2013-09-15 16:20:00,
2013-09-15 12:21:00,68.4,56.6,30.13,West,264,4.0,5.0,66,0.00,,---,0.01,566.00,VWS V14.00,2013-09-15 16:21:00,
2013-09-15 12:22:00,68.2,56.8,30.13,West,260,2.0,10.0,67,0.00,,---,0.01,526.00,VWS V14.00,2013-09-15 16:22:00,
2013-09-15 12:23:00,68.1,57.6,30.13,WSW,258,1.0,10.0,69,0.00,,---,0.01,522.00,VWS V14.00,2013-09-15 16:23:00,
2013-09-15 12:24:00,68.0,57.1,30.13,SW,234,1.0,10.0,68,0.00,,---,0.01,557.00,VWS V14.00,2013-09-15 16:24:00,
2013-09-15 12:25:00,67.8,56.9,30.13,SW,221,0.0,10.0,68,0.00,,---,0.01,643.00,VWS V14.00,2013-09-15 16:25:00,
2013-09-15 12:26:00,67.8,56.5,30.13,WSW,244,4.0,10.0,67,0.00,,---,0.01,675.00,VWS V14.00,2013-09-15 16:26:00,
2013-09-15 12:27:00,67.8,57.3,30.12,West,264,4.0,10.0,69,0.00,,---,0.01,708.00,VWS V14.00,2013-09-15 16:27:00,
2013-09-15 12:28:00,67.7,57.6,30.13,West,261,3.0,10.0,70,0.00,,---,0.01,733.00,VWS V14.00,2013-09-15 16:28:00,
2013-09-15 12:29:00,67.7,56.8,30.13,WSW,258,1.0,10.0,68,0.00,,---,0.01,749.00,VWS V14.00,2013-09-15 16:29:00,
2013-09-15 12:30:00,67.7,56.8,30.13,WSW,258,3.0,10.0,68,0.00,,---,0.01,687.00,VWS V14.00,2013-09-15 16:30:00,
2013-09-15 12:31:00,67.7,56.4,30.13,WSW,258,1.0,3.0,67,0.00,,---,0.01,659.00,VWS V14.00,2013-09-15 16:31:00,
2013-09-15 12:32:00,67.7,56.4,30.13,WSW,256,3.0,4.0,67,0.00,,---,0.01,635.00,VWS V14.00,2013-09-15 16:32:00,
2013-09-15 12:33:00,67.7,56.8,30.13,West,262,4.0,5.0,68,0.00,,---,0.01,619.00,VWS V14.00,2013-09-15 16:33:00,
2013-09-15 12:34:00,67.7,57.6,30.13,West,259,1.0,5.0,70,0.00,,---,0.01,647.00,VWS V14.00,2013-09-15 16:34:00,
2013-09-15 12:35:00,67.7,58.0,30.13,West,259,0.0,5.0,71,0.00,,---,0.01,592.00,VWS V14.00,2013-09-15 16:35:00,
2013-09-15 12:36:00,67.8,58.1,30.13,SSW,196,0.0,5.0,71,0.00,,---,0.01,636.00,VWS V14.00,2013-09-15 16:36:00,
2013-09-15 12:37:00,67.8,57.3,30.13,SW,229,2.0,5.0,69,0.00,,---,0.01,606.00,VWS V14.00,2013-09-15 16:37:00,
2013-09-15 12:38:00,67.9,57.0,30.13,WSW,254,4.0,7.0,68,0.00,,---,0.01,534.00,VWS V14.00,2013-09-15 16:38:00,
2013-09-15 12:39:00,67.9,57.0,30.13,WSW,253,0.0,7.0,68,0.00,,---,0.01,450.00,VWS V14.00,2013-09-15 16:39:00,
2013-09-15 12:40:00,67.9,56.5,30.13,WSW,253,0.0,7.0,67,0.00,,---,0.01,480.00,VWS V14.00,2013-09-15 16:40:00,
2013-09-15 12:41:00,67.9,56.5,30.13,WSW,253,0.0,7.0,67,0.00,,---,0.01,561.00,VWS V14.00,2013-09-15 16:41:00,
2013-09-15 12:42:00,68.0,57.9,30.12,WSW,253,2.0,7.0,70,0.00,,---,0.01,635.00,VWS V14.00,2013-09-15 16:42:00,
2013-09-15 12:43:00,68.2,58.5,30.13,WSW,253,2.0,7.0,71,0.00,,---,0.01,643.00,VWS V14.00,2013-09-15 16:43:00,
2013-09-15 12:44:00,68.2,58.8,30.13,WSW,253,0.0,7.0,72,0.00,,---,0.01,557.00,VWS V14.00,2013-09-15 16:44:00,
2013-09-15 12:45:00,68.3,58.9,30.13,SSW,197,1.0,7.0,72,0.00,,---,0.01,543.00,VWS V14.00,2013-09-15 16:45:00,
2013-09-15 12:46:00,68.4,58.2,30.13,SSW,193,2.0,7.0,70,0.00,,---,0.01,598.00,VWS V14.00,2013-09-15 16:46:00,
2013-09-15 12:47:00,68.5,57.9,30.12,SE,133,0.0,7.0,69,0.00,,---,0.01,691.00,VWS V14.00,2013-09-15 16:47:00,
2013-09-15 12:48:00,68.6,58.4,30.12,West,264,2.0,7.0,70,0.00,,---,0.01,777.00,VWS V14.00,2013-09-15 16:48:00,
2013-09-15 12:49:00,68.7,57.3,30.12,WSW,246,4.0,7.0,67,0.00,,---,0.01,775.00,VWS V14.00,2013-09-15 16:49:00,
2013-09-15 12:50:00,68.8,58.2,30.12,WSW,257,2.0,7.0,69,0.00,,---,0.01,694.00,VWS V14.00,2013-09-15 16:50:00,
2013-09-15 12:51:00,68.8,57.4,30.12,West,272,8.0,8.0,67,0.00,,---,0.01,737.00,VWS V14.00,2013-09-15 16:51:00,
2013-09-15 12:52:00,68.8,57.4,30.12,West,277,1.0,8.0,67,0.00,,---,0.01,742.00,VWS V14.00,2013-09-15 16:52:00,
2013-09-15 12:53:00,68.8,57.4,30.12,West,277,2.0,8.0,67,0.00,,---,0.01,737.00,VWS V14.00,2013-09-15 16:53:00,
2013-09-15 12:54:00,68.7,58.1,30.12,West,274,0.0,8.0,69,0.00,,---,0.01,694.00,VWS V14.00,2013-09-15 16:54:00,
2013-09-15 12:55:00,68.8,57.4,30.12,West,275,0.0,8.0,67,0.00,,---,0.01,770.00,VWS V14.00,2013-09-15 16:55:00,
2013-09-15 12:56:00,68.8,57.8,30.12,SSE,147,2.0,8.0,68,0.00,,---,0.01,770.00,VWS V14.00,2013-09-15 16:56:00,
2013-09-15 12:57:00,68.9,57.5,30.12,ESE,117,0.0,8.0,67,0.00,,---,0.01,568.00,VWS V14.00,2013-09-15 16:57:00,
2013-09-15 12:58:00,68.9,57.9,30.12,West,277,2.0,8.0,68,0.00,,---,0.01,606.00,VWS V14.00,2013-09-15 16:58:00,
2013-09-15 12:59:00,69.0,57.6,30.12,West,277,1.0,8.0,67,0.00,,---,0.01,603.00,VWS V14.00,2013-09-15 16:59:00,
2013-09-15 13:00:00,69.1,58.5,30.12,West,275,4.0,8.0,69,0.00,,---,0.01,522.00,VWS V14.00,2013-09-15 17:00:00,
2013-09-15 13:01:00,69.1,57.7,30.12,West,269,5.0,5.0,67,0.00,,---,0.01,522.00,VWS V14.00,2013-09-15 17:01:00,
2013-09-15 13:02:00,69.1,57.7,30.12,West,260,3.0,5.0,67,0.00,,---,0.01,652.00,VWS V14.00,2013-09-15 17:02:00,
2013-09-15 13:03:00,69.1,58.5,30.12,West,260,0.0,6.0,69,0.00,,---,0.01,687.00,VWS V14.00,2013-09-15 17:03:00,
2013-09-15 13:04:00,69.1,57.7,30.12,West,263,1.0,6.0,67,0.00,,---,0.01,691.00,VWS V14.00,2013-09-15 17:04:00,
2013-09-15 13:05:00,69.1,58.9,30.12,SW,216,4.0,6.0,70,0.00,,---,0.01,608.00,VWS V14.00,2013-09-15 17:05:00,
2013-09-15 13:06:00,69.2,58.6,30.12,SW,228,2.0,8.0,69,0.00,,---,0.01,570.00,VWS V14.00,2013-09-15 17:06:00,
2013-09-15 13:07:00,69.2,57.8,30.12,SSW,209,1.0,8.0,67,0.00,,---,0.01,496.00,VWS V14.00,2013-09-15 17:07:00,
2013-09-15 13:08:00,69.2,57.4,30.12,South,188,3.0,8.0,66,0.00,,---,0.01,489.00,VWS V14.00,2013-09-15 17:08:00,
2013-09-15 13:09:00,69.3,57.9,30.12,SSW,198,0.0,8.0,67,0.00,,---,0.01,482.00,VWS V14.00,2013-09-15 17:09:00,
2013-09-15 13:10:00,69.3,57.5,30.12,SW,232,4.0,8.0,66,0.00,,---,0.01,459.00,VWS V14.00,2013-09-15 17:10:00,
2013-09-15 13:11:00,69.3,57.9,30.12,West,269,4.0,8.0,67,0.00,,---,0.01,445.00,VWS V14.00,2013-09-15 17:11:00,
2013-09-15 13:12:00,69.3,57.5,30.12,West,265,1.0,8.0,66,0.00,,---,0.01,443.00,VWS V14.00,2013-09-15 17:12:00,
2013-09-15 13:13:00,69.3,58.3,30.12,SW,222,0.0,8.0,68,0.00,,---,0.01,471.00,VWS V14.00,2013-09-15 17:13:00,
2013-09-15 13:14:00,69.3,58.3,30.12,WSW,257,5.0,8.0,68,0.00,,---,0.01,489.00,VWS V14.00,2013-09-15 17:14:00,
2013-09-15 13:15:00,69.3,57.5,30.12,West,269,2.0,8.0,66,0.00,,---,0.01,480.00,VWS V14.00,2013-09-15 17:15:00,
2013-09-15 13:16:00,69.4,58.8,30.12,WSW,245,2.0,8.0,69,0.00,,---,0.01,475.00,VWS V14.00,2013-09-15 17:16:00,
2013-09-15 13:17:00,69.4,58.8,30.12,ENE,77,0.0,8.0,69,0.00,,---,0.01,536.00,VWS V14.00,2013-09-15 17:17:00,
2013-09-15 13:18:00,69.4,58.4,30.12,SSW,205,1.0,8.0,68,0.00,,---,0.01,601.00,VWS V14.00,2013-09-15 17:18:00,
2013-09-15 13:19:00,69.4,59.2,30.12,SW,227,2.0,8.0,70,0.00,,---,0.01,561.00,VWS V14.00,2013-09-15 17:19:00,
2013-09-15 13:20:00,69.5,59.7,30.12,SE,130,2.0,8.0,71,0.00,,---,0.01,559.00,VWS V14.00,2013-09-15 17:20:00,
2013-09-15 13:21:00,69.6,57.8,30.12,WSW,243,5.0,8.0,66,0.00,,---,0.01,559.00,VWS V14.00,2013-09-15 17:21:00,
2013-09-15 13:22:00,69.6,58.2,30.12,South,179,4.0,8.0,67,0.00,,---,0.01,559.00,VWS V14.00,2013-09-15 17:22:00,
2013-09-15 13:23:00,69.7,57.8,30.12,SW,236,0.0,8.0,66,0.00,,---,0.01,501.00,VWS V14.00,2013-09-15 17:23:00,
2013-09-15 13:24:00,69.7,57.8,30.12,SE,140,6.0,8.0,66,0.00,,---,0.01,501.00,VWS V14.00,2013-09-15 17:24:00,
2013-09-15 13:25:00,69.7,57.8,30.12,WSW,243,5.0,10.0,66,0.00,,---,0.01,425.00,VWS V14.00,2013-09-15 17:25:00,
2013-09-15 13:26:00,69.7,57.4,30.12,WSW,248,1.0,10.0,65,0.00,,---,0.01,457.00,VWS V14.00,2013-09-15 17:26:00,
2013-09-15 13:27:00,69.6,57.3,30.12,WSW,244,4.0,10.0,65,0.00,,---,0.01,457.00,VWS V14.00,2013-09-15 17:27:00,
2013-09-15 13:28:00,69.5,57.2,30.12,SW,234,3.0,10.0,65,0.00,,---,0.01,318.00,VWS V14.00,2013-09-15 17:28:00,
2013-09-15 13:29:00,69.5,57.2,30.12,SW,220,5.0,10.0,65,0.00,,---,0.01,531.00,VWS V14.00,2013-09-15 17:29:00,
2013-09-15 13:30:00,69.4,57.1,30.12,SW,234,3.0,10.0,65,0.00,,---,0.01,492.00,VWS V14.00,2013-09-15 17:30:00,
2013-09-15 13:31:00,69.3,57.5,30.11,South,188,0.0,5.0,66,0.00,,---,0.01,536.00,VWS V14.00,2013-09-15 17:31:00,
2013-09-15 13:32:00,69.3,57.0,30.11,West,259,3.0,6.0,65,0.00,,---,0.01,485.00,VWS V14.00,2013-09-15 17:32:00,
2013-09-15 13:33:00,69.3,57.5,30.12,SSE,153,4.0,6.0,66,0.00,,---,0.01,563.00,VWS V14.00,2013-09-15 17:33:00,
2013-09-15 13:34:00,69.2,57.4,30.11,WSW,246,1.0,6.0,66,0.00,,---,0.01,587.00,VWS V14.00,2013-09-15 17:34:00,
2013-09-15 13:35:00,69.3,57.5,30.11,WSW,251,2.0,6.0,66,0.00,,---,0.01,610.00,VWS V14.00,2013-09-15 17:35:00,
2013-09-15 13:36:00,69.2,57.8,30.11,WSW,256,5.0,6.0,67,0.00,,---,0.01,624.00,VWS V14.00,2013-09-15 17:36:00,
2013-09-15 13:37:00,69.3,58.7,30.11,SW,225,0.0,6.0,69,0.00,,---,0.01,624.00,VWS V14.00,2013-09-15 17:37:00,
2013-09-15 13:38:00,69.4,59.6,30.11,SW,229,2.0,6.0,71,0.00,,---,0.01,362.00,VWS V14.00,2013-09-15 17:38:00,
2013-09-15 13:39:00,69.5,58.9,30.11,WSW,252,3.0,7.0,69,0.00,,---,0.01,362.00,VWS V14.00,2013-09-15 17:39:00,
2013-09-15 13:40:00,69.5,58.1,30.11,WSW,252,0.0,7.0,67,0.00,,---,0.01,703.00,VWS V14.00,2013-09-15 17:40:00,
2013-09-15 13:41:00,69.6,58.2,30.11,WSW,252,1.0,7.0,67,0.00,,---,0.01,830.00,VWS V14.00,2013-09-15 17:41:00,
2013-09-15 13:42:00,69.8,58.4,30.11,WSW,244,1.0,7.0,67,0.00,,---,0.01,800.00,VWS V14.00,2013-09-15 17:42:00,
2013-09-15 13:43:00,69.9,58.9,30.11,South,173,2.0,7.0,68,0.00,,---,0.01,777.00,VWS V14.00,2013-09-15 17:43:00,
2013-09-15 13:44:00,70.0,58.1,30.11,West,270,4.0,7.0,66,0.00,,---,0.01,780.00,VWS V14.00,2013-09-15 17:44:00,
2013-09-15 13:45:00,70.1,58.2,30.11,SSW,198,2.0,7.0,66,0.00,,---,0.01,807.00,VWS V14.00,2013-09-15 17:45:00,
2013-09-15 13:46:00,70.1,58.2,30.11,SSW,204,2.0,7.0,66,0.00,,---,0.01,807.00,VWS V14.00,2013-09-15 17:46:00,
2013-09-15 13:47:00,70.2,57.9,30.11,SE,132,1.0,7.0,65,0.00,,---,0.01,807.00,VWS V14.00,2013-09-15 17:47:00,
2013-09-15 13:48:00,70.3,57.6,30.11,WSW,256,0.0,7.0,64,0.00,,---,0.01,673.00,VWS V14.00,2013-09-15 17:48:00,
2013-09-15 13:49:00,70.3,58.8,30.11,SW,235,3.0,7.0,67,0.00,,---,0.01,717.00,VWS V14.00,2013-09-15 17:49:00,
2013-09-15 13:50:00,70.3,58.4,30.11,WSW,258,5.0,7.0,66,0.00,,---,0.01,693.00,VWS V14.00,2013-09-15 17:50:00,
2013-09-15 13:51:00,70.3,58.0,30.11,West,262,2.0,8.0,65,0.00,,---,0.01,693.00,VWS V14.00,2013-09-15 17:51:00,
2013-09-15 13:52:00,70.3,58.0,30.11,West,261,0.0,8.0,65,0.00,,---,0.01,775.00,VWS V14.00,2013-09-15 17:52:00,
2013-09-15 13:53:00,70.3,58.4,30.11,SW,221,1.0,8.0,66,0.00,,---,0.01,708.00,VWS V14.00,2013-09-15 17:53:00,
2013-09-15 13:54:00,70.4,58.1,30.11,West,267,4.0,8.0,65,0.00,,---,0.01,679.00,VWS V14.00,2013-09-15 17:54:00,
2013-09-15 13:55:00,70.4,58.9,30.11,SSE,166,1.0,8.0,67,0.00,,---,0.01,686.00,VWS V14.00,2013-09-15 17:55:00,
2013-09-15 13:56:00,70.5,59.4,30.11,SSW,211,2.0,8.0,68,0.00,,---,0.01,686.00,VWS V14.00,2013-09-15 17:56:00,
2013-09-15 13:57:00,70.6,57.8,30.11,SW,228,2.0,8.0,64,0.00,,---,0.01,712.00,VWS V14.00,2013-09-15 17:57:00,
2013-09-15 13:58:00,70.6,57.8,30.11,SW,236,3.0,8.0,64,0.00,,---,0.01,712.00,VWS V14.00,2013-09-15 17:58:00,
2013-09-15 13:59:00,70.7,58.8,30.11,WSW,257,6.0,10.0,66,0.00,,---,0.01,712.00,VWS V14.00,2013-09-15 17:59:00,
2013-09-15 14:00:00,70.7,57.5,30.11,West,265,1.0,12.0,63,0.00,,---,0.01,712.00,VWS V14.00,2013-09-15 18:00:00,
2013-09-15 14:01:00,70.6,57.0,30.11,SE,140,0.0,5.0,62,0.00,,---,0.01,712.00,VWS V14.00,2013-09-15 18:01:00,
2013-09-15 14:02:00,70.6,58.3,30.11,SW,229,3.0,5.0,65,0.00,,---,0.01,712.00,VWS V14.00,2013-09-15 18:02:00,
2013-09-15 14:03:00,70.6,59.1,30.11,SSW,203,1.0,5.0,67,0.00,,---,0.01,740.00,VWS V14.00,2013-09-15 18:03:00,
2013-09-15 14:04:00,70.6,59.1,30.11,SE,134,4.0,5.0,67,0.00,,---,0.01,633.00,VWS V14.00,2013-09-15 18:04:00,
2013-09-15 14:05:00,70.7,58.4,30.10,SW,227,1.0,11.0,65,0.00,,---,0.01,673.00,VWS V14.00,2013-09-15 18:05:00,
2013-09-15 14:06:00,70.7,58.4,30.10,West,259,7.0,11.0,65,0.00,,---,0.01,673.00,VWS V14.00,2013-09-15 18:06:00,
2013-09-15 14:07:00,70.7,57.5,30.10,ESE,104,0.0,11.0,63,0.00,,---,0.01,673.00,VWS V14.00,2013-09-15 18:07:00,
2013-09-15 14:08:00,70.8,57.2,30.10,SSW,198,0.0,11.0,62,0.00,,---,0.01,668.00,VWS V14.00,2013-09-15 18:08:00,
2013-09-15 14:09:00,70.8,57.6,30.10,SSW,213,0.0,11.0,63,0.00,,---,0.01,682.00,VWS V14.00,2013-09-15 18:09:00,
2013-09-15 14:10:00,70.8,57.6,30.10,West,259,4.0,11.0,63,0.00,,---,0.01,661.00,VWS V14.00,2013-09-15 18:10:00,
2013-09-15 14:11:00,70.8,57.2,30.10,West,276,7.0,15.0,62,0.00,,---,0.01,666.00,VWS V14.00,2013-09-15 18:11:00,
2013-09-15 14:12:00,70.8,57.6,30.10,WSW,238,3.0,15.0,63,0.00,,---,0.01,661.00,VWS V14.00,2013-09-15 18:12:00,
2013-09-15 14:13:00,70.8,57.6,30.10,West,275,6.0,15.0,63,0.00,,---,0.01,605.00,VWS V14.00,2013-09-15 18:13:00,
2013-09-15 14:14:00,70.7,58.8,30.10,WSW,243,0.0,15.0,66,0.00,,---,0.01,606.00,VWS V14.00,2013-09-15 18:14:00,
2013-09-15 14:15:00,70.8,58.5,30.10,SE,146,4.0,15.0,65,0.00,,---,0.01,520.00,VWS V14.00,2013-09-15 18:15:00,
2013-09-15 14:16:00,70.8,58.0,30.10,SE,146,1.0,15.0,64,0.00,,---,0.01,612.00,VWS V14.00,2013-09-15 18:16:00,
2013-09-15 14:17:00,70.8,57.6,30.10,SW,227,8.0,15.0,63,0.00,,---,0.01,664.00,VWS V14.00,2013-09-15 18:17:00,
2013-09-15 14:18:00,70.8,56.7,30.10,SSW,211,2.0,15.0,61,0.00,,---,0.01,578.00,VWS V14.00,2013-09-15 18:18:00,
2013-09-15 14:19:00,70.8,57.6,30.10,West,259,4.0,15.0,63,0.00,,---,0.01,578.00,VWS V14.00,2013-09-15 18:19:00,
2013-09-15 14:20:00,70.8,57.6,30.10,WSW,239,4.0,15.0,63,0.00,,---,0.01,330.00,VWS V14.00,2013-09-15 18:20:00,
2013-09-15 14:21:00,70.8,57.6,30.10,West,263,4.0,15.0,63,0.00,,---,0.01,413.00,VWS V14.00,2013-09-15 18:21:00,
2013-09-15 14:22:00,70.7,57.1,30.10,WSW,251,3.0,15.0,62,0.00,,---,0.01,454.00,VWS V14.00,2013-09-15 18:22:00,
2013-09-15 14:23:00,70.6,57.0,30.10,WSW,249,1.0,15.0,62,0.00,,---,0.01,550.00,VWS V14.00,2013-09-15 18:23:00,
2013-09-15 14:24:00,70.6,57.4,30.10,WSW,252,2.0,15.0,63,0.00,,---,0.01,594.00,VWS V14.00,2013-09-15 18:24:00,
2013-09-15 14:25:00,70.5,57.8,30.10,WSW,254,4.0,15.0,64,0.00,,---,0.01,605.00,VWS V14.00,2013-09-15 18:25:00,
2013-09-15 14:26:00,70.5,58.6,30.10,West,260,2.0,15.0,66,0.00,,---,0.01,606.00,VWS V14.00,2013-09-15 18:26:00,
2013-09-15 14:27:00,70.5,59.0,30.10,West,261,0.0,15.0,67,0.00,,---,0.01,584.00,VWS V14.00,2013-09-15 18:27:00,
2013-09-15 14:28:00,70.6,58.3,30.10,SW,229,3.0,15.0,65,0.00,,---,0.01,584.00,VWS V14.00,2013-09-15 18:28:00,
2013-09-15 14:29:00,70.6,57.8,30.10,West,259,5.0,15.0,64,0.00,,---,0.01,418.00,VWS V14.00,2013-09-15 18:29:00,
2013-09-15 14:30:00,70.6,57.8,30.10,WSW,258,3.0,15.0,64,0.00,,---,0.01,336.00,VWS V14.00,2013-09-15 18:30:00,
2013-09-15 14:31:00,70.6,57.8,30.10,WSW,252,1.0,5.0,64,0.00,,---,0.01,336.00,VWS V14.00,2013-09-15 18:31:00,
2013-09-15 14:32:00,70.6,58.7,30.10,ESE,103,5.0,5.0,66,0.00,,---,0.01,489.00,VWS V14.00,2013-09-15 18:32:00,
2013-09-15 14:33:00,70.6,57.4,30.10,SSE,148,5.0,8.0,63,0.00,,---,0.01,533.00,VWS V14.00,2013-09-15 18:33:00,
2013-09-15 14:34:00,70.6,57.8,30.10,West,279,5.0,8.0,64,0.00,,---,0.01,533.00,VWS V14.00,2013-09-15 18:34:00,
2013-09-15 14:35:00,70.6,57.8,30.10,SW,219,1.0,8.0,64,0.00,,---,0.01,504.00,VWS V14.00,2013-09-15 18:35:00,
2013-09-15 14:36:00,70.6,57.8,30.10,SW,214,0.0,8.0,64,0.00,,---,0.01,466.00,VWS V14.00,2013-09-15 18:36:00,
2013-09-15 14:37:00,70.6,57.8,30.09,WSW,256,5.0,8.0,64,0.00,,---,0.01,452.00,VWS V14.00,2013-09-15 18:37:00,
2013-09-15 14:38:00,70.6,57.8,30.09,SSW,211,5.0,8.0,64,0.00,,---,0.01,519.00,VWS V14.00,2013-09-15 18:38:00,
2013-09-15 14:39:00,70.6,57.8,30.09,WSW,252,2.0,8.0,64,0.00,,---,0.01,545.00,VWS V14.00,2013-09-15 18:39:00,
2013-09-15 14:40:00,70.6,57.8,30.09,SE,144,1.0,8.0,64,0.00,,---,0.01,599.00,VWS V14.00,2013-09-15 18:40:00,
2013-09-15 14:41:00,70.6,57.8,30.09,ESE,111,0.0,8.0,64,0.00,,---,0.01,575.00,VWS V14.00,2013-09-15 18:41:00,
2013-09-15 14:42:00,70.7,57.5,30.09,WSW,242,0.0,8.0,63,0.00,,---,0.01,545.00,VWS V14.00,2013-09-15 18:42:00,
2013-09-15 14:43:00,70.8,58.0,30.09,SSE,160,6.0,8.0,64,0.00,,---,0.01,571.00,VWS V14.00,2013-09-15 18:43:00,
2013-09-15 14:44:00,70.8,57.6,30.09,WSW,240,1.0,8.0,63,0.00,,---,0.01,563.00,VWS V14.00,2013-09-15 18:44:00,
2013-09-15 14:45:00,70.8,57.6,30.09,WSW,238,2.0,8.0,63,0.00,,---,0.01,496.00,VWS V14.00,2013-09-15 18:45:00,
2013-09-15 14:46:00,70.8,58.0,30.09,WSW,242,5.0,8.0,64,0.00,,---,0.01,578.00,VWS V14.00,2013-09-15 18:46:00,
2013-09-15 14:47:00,70.9,57.2,30.09,East,92,4.0,8.0,62,0.00,,---,0.01,552.00,VWS V14.00,2013-09-15 18:47:00,
2013-09-15 14:48:00,70.9,58.1,30.09,SSW,195,1.0,8.0,64,0.00,,---,0.01,568.00,VWS V14.00,2013-09-15 18:48:00,
2013-09-15 14:49:00,71.0,57.3,30.09,SSE,163,0.0,8.0,62,0.00,,---,0.01,564.00,VWS V14.00,2013-09-15 18:49:00,
2013-09-15 14:50:00,71.0,57.8,30.09,ESE,116,0.0,8.0,63,0.00,,---,0.01,512.00,VWS V14.00,2013-09-15 18:50:00,
2013-09-15 14:51:00,71.0,58.2,30.09,ESE,103,4.0,8.0,64,0.00,,---,0.01,431.00,VWS V14.00,2013-09-15 18:51:00,
2013-09-15 14:52:00,71.0,57.3,30.09,SE,128,0.0,8.0,62,0.00,,---,0.01,394.00,VWS V14.00,2013-09-15 18:52:00,
2013-09-15 14:53:00,71.0,58.2,30.09,SSE,147,1.0,8.0,64,0.00,,---,0.01,425.00,VWS V14.00,2013-09-15 18:53:00,
2013-09-15 14:54:00,71.0,57.8,30.09,SE,146,1.0,8.0,63,0.00,,---,0.01,390.00,VWS V14.00,2013-09-15 18:54:00,
2013-09-15 14:55:00,71.0,57.8,30.09,West,263,0.0,8.0,63,0.00,,---,0.01,360.00,VWS V14.00,2013-09-15 18:55:00,
2013-09-15 14:56:00,71.0,57.8,30.09,West,261,2.0,8.0,63,0.00,,---,0.01,318.00,VWS V14.00,2013-09-15 18:56:00,
2013-09-15 14:57:00,71.0,57.8,30.09,West,261,0.0,8.0,63,0.00,,---,0.01,313.00,VWS V14.00,2013-09-15 18:57:00,
2013-09-15 14:58:00,71.0,59.1,30.09,West,261,0.0,8.0,66,0.00,,---,0.01,318.00,VWS V14.00,2013-09-15 18:58:00,
2013-09-15 14:59:00,70.9,58.1,30.09,SSW,196,0.0,8.0,64,0.00,,---,0.01,336.00,VWS V14.00,2013-09-15 18:59:00,
2013-09-15 15:00:00,70.9,57.2,30.09,West,259,1.0,8.0,62,0.00,,---,0.01,355.00,VWS V14.00,2013-09-15 19:00:00,
2013-09-15 15:01:00,70.9,57.7,30.09,WSW,250,3.0,5.0,63,0.00,,---,0.01,355.00,VWS V14.00,2013-09-15 19:01:00,
2013-09-15 15:02:00,70.8,58.0,30.09,WSW,250,0.0,5.0,64,0.00,,---,0.01,417.00,VWS V14.00,2013-09-15 19:02:00,
2013-09-15 15:03:00,70.8,58.5,30.09,WSW,250,0.0,5.0,65,0.00,,---,0.01,401.00,VWS V14.00,2013-09-15 19:03:00,
2013-09-15 15:04:00,70.8,58.5,30.08,WSW,249,0.0,5.0,65,0.00,,---,0.01,425.00,VWS V14.00,2013-09-15 19:04:00,
2013-09-15 15:05:00,70.8,59.3,30.08,WSW,249,0.0,5.0,67,0.00,,---,0.01,357.00,VWS V14.00,2013-09-15 19:05:00,
2013-09-15 15:06:00,70.9,59.4,30.08,WSW,249,0.0,5.0,67,0.00,,---,0.01,410.00,VWS V14.00,2013-09-15 19:06:00,
2013-09-15 15:07:00,70.9,59.0,30.08,WSW,249,0.0,5.0,66,0.00,,---,0.01,399.00,VWS V14.00,2013-09-15 19:07:00,
2013-09-15 15:08:00,71.0,58.7,30.08,WSW,249,0.0,5.0,65,0.00,,---,0.01,381.00,VWS V14.00,2013-09-15 19:08:00,
2013-09-15 15:09:00,71.0,59.9,30.08,SW,236,0.0,5.0,68,0.00,,---,0.01,403.00,VWS V14.00,2013-09-15 19:09:00,
2013-09-15 15:10:00,71.1,60.0,30.08,WSW,245,2.0,5.0,68,0.00,,---,0.01,357.00,VWS V14.00,2013-09-15 19:10:00,
2013-09-15 15:11:00,71.2,59.7,30.08,WSW,245,0.0,5.0,67,0.00,,---,0.01,420.00,VWS V14.00,2013-09-15 19:11:00,
2013-09-15 15:12:00,71.2,58.8,30.08,South,190,2.0,6.0,65,0.00,,---,0.01,422.00,VWS V14.00,2013-09-15 19:12:00,
2013-09-15 15:13:00,71.2,58.0,30.08,West,269,4.0,7.0,63,0.00,,---,0.01,404.00,VWS V14.00,2013-09-15 19:13:00,
2013-09-15 15:14:00,71.2,57.1,30.08,WSW,254,0.0,7.0,61,0.00,,---,0.01,424.00,VWS V14.00,2013-09-15 19:14:00,
2013-09-15 15:15:00,71.1,57.9,30.08,WSW,257,1.0,7.0,63,0.00,,---,0.01,406.00,VWS V14.00,2013-09-15 19:15:00,
2013-09-15 15:16:00,71.1,57.4,30.08,West,271,6.0,7.0,62,0.00,,---,0.01,411.00,VWS V14.00,2013-09-15 19:16:00,
2013-09-15 15:17:00,71.1,57.4,30.08,WSW,257,2.0,7.0,62,0.00,,---,0.01,418.00,VWS V14.00,2013-09-15 19:17:00,
2013-09-15 15:18:00,71.0,57.8,30.08,West,267,7.0,7.0,63,0.00,,---,0.01,431.00,VWS V14.00,2013-09-15 19:18:00,
2013-09-15 15:19:00,71.0,57.3,30.08,WSW,243,2.0,8.0,62,0.00,,---,0.01,413.00,VWS V14.00,2013-09-15 19:19:00,
2013-09-15 15:20:00,71.0,58.2,30.08,West,270,6.0,8.0,64,0.00,,---,0.01,357.00,VWS V14.00,2013-09-15 19:20:00,
2013-09-15 15:21:00,70.9,57.7,30.08,West,274,4.0,8.0,63,0.00,,---,0.01,332.00,VWS V14.00,2013-09-15 19:21:00,
2013-09-15 15:22:00,70.9,57.7,30.08,WSW,240,1.0,8.0,63,0.00,,---,0.01,332.00,VWS V14.00,2013-09-15 19:22:00,
2013-09-15 15:23:00,70.8,58.0,30.08,South,175,1.0,8.0,64,0.00,,---,0.01,341.00,VWS V14.00,2013-09-15 19:23:00,
2013-09-15 15:24:00,70.8,57.6,30.08,West,259,4.0,8.0,63,0.00,,---,0.01,339.00,VWS V14.00,2013-09-15 19:24:00,
2013-09-15 15:25:00,70.8,58.0,30.08,West,263,2.0,8.0,64,0.00,,---,0.01,327.00,VWS V14.00,2013-09-15 19:25:00,
2013-09-15 15:26:00,70.8,57.2,30.08,West,259,3.0,8.0,62,0.00,,---,0.01,369.00,VWS V14.00,2013-09-15 19:26:00,
2013-09-15 15:27:00,70.7,57.1,30.08,West,259,1.0,8.0,62,0.00,,---,0.01,415.00,VWS V14.00,2013-09-15 19:27:00,
2013-09-15 15:28:00,70.7,58.8,30.08,WSW,256,0.0,8.0,66,0.00,,---,0.01,408.00,VWS V14.00,2013-09-15 19:28:00,
2013-09-15 15:29:00,70.8,58.5,30.08,WSW,257,1.0,8.0,65,0.00,,---,0.01,374.00,VWS V14.00,2013-09-15 19:29:00,
2013-09-15 15:30:00,70.8,57.6,30.08,West,265,3.0,8.0,63,0.00,,---,0.01,373.00,VWS V14.00,2013-09-15 19:30:00,
2013-09-15 15:31:00,70.8,57.6,30.08,WSW,242,0.0,4.0,63,0.00,,---,0.01,380.00,VWS V14.00,2013-09-15 19:31:00,
2013-09-15 15:32:00,70.8,57.6,30.08,WSW,243,2.0,4.0,63,0.00,,---,0.01,427.00,VWS V14.00,2013-09-15 19:32:00,
2013-09-15 15:33:00,70.8,57.2,30.08,West,259,3.0,6.0,62,0.00,,---,0.01,424.00,VWS V14.00,2013-09-15 19:33:00,
2013-09-15 15:34:00,70.8,57.6,30.08,West,263,4.0,6.0,63,0.00,,---,0.01,432.00,VWS V14.00,2013-09-15 19:34:00,
2013-09-15 15:35:00,70.8,57.2,30.08,West,263,1.0,6.0,62,0.00,,---,0.01,418.00,VWS V14.00,2013-09-15 19:35:00,
2013-09-15 15:36:00,70.8,57.2,30.08,West,266,1.0,6.0,62,0.00,,---,0.01,397.00,VWS V14.00,2013-09-15 19:36:00,
2013-09-15 15:37:00,70.8,57.6,30.08,West,262,3.0,6.0,63,0.00,,---,0.01,394.00,VWS V14.00,2013-09-15 19:37:00,
2013-09-15 15:38:00,70.9,57.7,30.08,West,261,0.0,6.0,63,0.00,,---,0.01,411.00,VWS V14.00,2013-09-15 19:38:00,
2013-09-15 15:39:00,70.8,58.0,30.08,South,176,2.0,6.0,64,0.00,,---,0.01,415.00,VWS V14.00,2013-09-15 19:39:00,
2013-09-15 15:40:00,70.8,56.7,30.08,SSW,192,1.0,6.0,61,0.00,,---,0.01,417.00,VWS V14.00,2013-09-15 19:40:00,
2013-09-15 15:41:00,70.8,57.2,30.08,WSW,243,3.0,6.0,62,0.00,,---,0.01,406.00,VWS V14.00,2013-09-15 19:41:00,
2013-09-15 15:42:00,70.9,57.7,30.08,WSW,246,1.0,6.0,63,0.00,,---,0.01,385.00,VWS V14.00,2013-09-15 19:42:00,
2013-09-15 15:43:00,70.9,57.2,30.08,West,267,4.0,6.0,62,0.00,,---,0.01,373.00,VWS V14.00,2013-09-15 19:43:00,
2013-09-15 15:44:00,70.9,56.8,30.08,West,265,2.0,6.0,61,0.00,,---,0.01,355.00,VWS V14.00,2013-09-15 19:44:00,
2013-09-15 15:45:00,70.9,57.2,30.08,West,259,4.0,6.0,62,0.00,,---,0.01,360.00,VWS V14.00,2013-09-15 19:45:00,
2013-09-15 15:46:00,70.9,56.8,30.08,West,271,2.0,6.0,61,0.00,,---,0.01,357.00,VWS V14.00,2013-09-15 19:46:00,
2013-09-15 15:47:00,70.8,57.6,30.08,West,264,4.0,6.0,63,0.00,,---,0.01,332.00,VWS V14.00,2013-09-15 19:47:00,
2013-09-15 15:48:00,70.8,58.0,30.08,West,270,7.0,8.0,64,0.00,,---,0.01,302.00,VWS V14.00,2013-09-15 19:48:00,
2013-09-15 15:49:00,70.8,58.0,30.07,West,263,0.0,8.0,64,0.00,,---,0.01,299.00,VWS V14.00,2013-09-15 19:49:00,
2013-09-15 15:50:00,70.8,58.0,30.08,West,263,3.0,8.0,64,0.00,,---,0.01,302.00,VWS V14.00,2013-09-15 19:50:00,
2013-09-15 15:51:00,70.8,58.0,30.08,WSW,252,2.0,8.0,64,0.00,,---,0.01,371.00,VWS V14.00,2013-09-15 19:51:00,
2013-09-15 15:52:00,70.7,57.5,30.07,West,262,6.0,8.0,63,0.00,,---,0.01,353.00,VWS V14.00,2013-09-15 19:52:00,
2013-09-15 15:53:00,70.7,57.5,30.07,West,267,0.0,8.0,63,0.00,,---,0.01,338.00,VWS V14.00,2013-09-15 19:53:00,
2013-09-15 15:54:00,70.7,57.5,30.07,West,267,0.0,8.0,63,0.00,,---,0.01,299.00,VWS V14.00,2013-09-15 19:54:00,
2013-09-15 15:55:00,70.7,57.9,30.07,West,267,0.0,8.0,64,0.00,,---,0.01,274.00,VWS V14.00,2013-09-15 19:55:00,
2013-09-15 15:56:00,70.8,58.5,30.07,West,267,3.0,8.0,65,0.00,,---,0.01,272.00,VWS V14.00,2013-09-15 19:56:00,
2013-09-15 15:57:00,70.8,58.9,30.07,West,261,5.0,9.0,66,0.00,,---,0.01,276.00,VWS V14.00,2013-09-15 19:57:00,
2013-09-15 15:58:00,70.7,57.9,30.07,West,261,0.0,9.0,64,0.00,,---,0.01,283.00,VWS V14.00,2013-09-15 19:58:00,
2013-09-15 15:59:00,70.7,57.9,30.07,West,279,5.0,9.0,64,0.00,,---,0.01,343.00,VWS V14.00,2013-09-15 19:59:00,
2013-09-15 16:00:00,70.7,58.4,30.07,West,277,1.0,9.0,65,0.00,,---,0.01,343.00,VWS V14.00,2013-09-15 20:00:00,
2013-09-15 16:01:00,70.7,57.9,30.07,West,277,0.0,2.0,64,0.00,,---,0.01,392.00,VWS V14.00,2013-09-15 20:01:00,
2013-09-15 16:02:00,70.7,58.4,30.07,West,277,1.0,2.0,65,0.00,,---,0.01,385.00,VWS V14.00,2013-09-15 20:02:00,
2013-09-15 16:03:00,70.7,58.4,30.07,West,270,0.0,5.0,65,0.00,,---,0.01,378.00,VWS V14.00,2013-09-15 20:03:00,
2013-09-15 16:04:00,70.7,58.4,30.07,West,270,0.0,5.0,65,0.00,,---,0.01,394.00,VWS V14.00,2013-09-15 20:04:00,
2013-09-15 16:05:00,70.8,58.5,30.07,West,270,2.0,5.0,65,0.00,,---,0.01,381.00,VWS V14.00,2013-09-15 20:05:00,
2013-09-15 16:06:00,70.8,58.5,30.07,West,270,1.0,5.0,65,0.00,,---,0.01,336.00,VWS V14.00,2013-09-15 20:06:00,
2013-09-15 16:07:00,70.8,58.5,30.07,West,272,4.0,5.0,65,0.00,,---,0.01,279.00,VWS V14.00,2013-09-15 20:07:00,
2013-09-15 16:08:00,70.9,59.0,30.07,West,260,0.0,5.0,66,0.00,,---,0.01,274.00,VWS V14.00,2013-09-15 20:08:00,
2013-09-15 16:09:00,70.9,59.0,30.07,ESE,115,0.0,5.0,66,0.00,,---,0.01,269.00,VWS V14.00,2013-09-15 20:09:00,
2013-09-15 16:10:00,70.9,57.2,30.07,West,272,4.0,5.0,62,0.00,,---,0.01,297.00,VWS V14.00,2013-09-15 20:10:00,
2013-09-15 16:11:00,70.8,57.2,30.07,SSW,206,1.0,5.0,62,0.00,,---,0.01,336.00,VWS V14.00,2013-09-15 20:11:00,
2013-09-15 16:12:00,70.8,57.2,30.07,SW,225,1.0,5.0,62,0.00,,---,0.01,334.00,VWS V14.00,2013-09-15 20:12:00,
2013-09-15 16:13:00,70.8,57.6,30.07,SW,221,1.0,5.0,63,0.00,,---,0.01,343.00,VWS V14.00,2013-09-15 20:13:00,
2013-09-15 16:14:00,70.8,57.6,30.07,SW,219,2.0,6.0,63,0.00,,---,0.01,339.00,VWS V14.00,2013-09-15 20:14:00,
2013-09-15 16:15:00,70.8,57.2,30.07,WSW,240,2.0,6.0,62,0.00,,---,0.01,320.00,VWS V14.00,2013-09-15 20:15:00,
2013-09-15 16:16:00,70.8,57.6,30.07,West,268,3.0,6.0,63,0.00,,---,0.01,308.00,VWS V14.00,2013-09-15 20:16:00,
2013-09-15 16:17:00,70.7,57.9,30.07,West,267,2.0,6.0,64,0.00,,---,0.01,302.00,VWS V14.00,2013-09-15 20:17:00,
2013-09-15 16:18:00,70.7,57.9,30.07,West,264,2.0,6.0,64,0.00,,---,0.01,320.00,VWS V14.00,2013-09-15 20:18:00,
2013-09-15 16:19:00,70.7,57.9,30.07,West,263,3.0,6.0,64,0.00,,---,0.01,272.00,VWS V14.00,2013-09-15 20:19:00,
2013-09-15 16:20:00,70.7,57.5,30.07,West,281,6.0,6.0,63,0.00,,---,0.01,255.00,VWS V14.00,2013-09-15 20:20:00,
2013-09-15 16:21:00,70.7,57.9,30.07,West,271,5.0,7.0,64,0.00,,---,0.01,246.00,VWS V14.00,2013-09-15 20:21:00,
2013-09-15 16:22:00,70.6,57.0,30.07,West,269,1.0,7.0,62,0.00,,---,0.01,246.00,VWS V14.00,2013-09-15 20:22:00,
2013-09-15 16:23:00,70.6,57.8,30.07,WSW,241,3.0,7.0,64,0.00,,---,0.01,297.00,VWS V14.00,2013-09-15 20:23:00,
2013-09-15 16:24:00,70.5,57.8,30.07,WSW,246,3.0,7.0,64,0.00,,---,0.01,301.00,VWS V14.00,2013-09-15 20:24:00,
2013-09-15 16:25:00,70.5,57.8,30.07,West,259,3.0,7.0,64,0.00,,---,0.01,290.00,VWS V14.00,2013-09-15 20:25:00,
2013-09-15 16:26:00,70.4,57.7,30.07,WSW,246,4.0,7.0,64,0.00,,---,0.01,290.00,VWS V14.00,2013-09-15 20:26:00,
2013-09-15 16:27:00,70.4,57.2,30.07,WSW,243,0.0,7.0,63,0.00,,---,0.01,383.00,VWS V14.00,2013-09-15 20:27:00,
2013-09-15 16:28:00,70.5,58.6,30.07,WSW,243,0.0,7.0,66,0.00,,---,0.01,388.00,VWS V14.00,2013-09-15 20:28:00,
2013-09-15 16:29:00,70.5,57.8,30.07,WSW,246,2.0,7.0,64,0.00,,---,0.01,403.00,VWS V14.00,2013-09-15 20:29:00,
2013-09-15 16:30:00,70.5,57.8,30.07,SE,140,5.0,7.0,64,0.00,,---,0.01,364.00,VWS V14.00,2013-09-15 20:30:00,
2013-09-15 16:31:00,70.6,57.8,30.07,WSW,257,5.0,5.0,64,0.00,,---,0.01,408.00,VWS V14.00,2013-09-15 20:31:00,
2013-09-15 16:32:00,70.6,57.4,30.07,SW,235,1.0,8.0,63,0.00,,---,0.01,385.00,VWS V14.00,2013-09-15 20:32:00,
2013-09-15 16:33:00,70.7,57.9,30.07,SW,236,2.0,8.0,64,0.00,,---,0.01,397.00,VWS V14.00,2013-09-15 20:33:00,
2013-09-15 16:34:00,70.7,57.5,30.07,SW,236,0.0,8.0,63,0.00,,---,0.01,403.00,VWS V14.00,2013-09-15 20:34:00,
2013-09-15 16:35:00,70.7,58.4,30.07,West,261,1.0,8.0,65,0.00,,---,0.01,353.00,VWS V14.00,2013-09-15 20:35:00,
2013-09-15 16:36:00,70.8,58.0,30.07,West,260,6.0,8.0,64,0.00,,---,0.01,360.00,VWS V14.00,2013-09-15 20:36:00,
2013-09-15 16:37:00,70.9,57.7,30.07,West,259,0.0,8.0,63,0.00,,---,0.01,329.00,VWS V14.00,2013-09-15 20:37:00,
2013-09-15 16:38:00,70.9,58.1,30.07,SSE,165,0.0,8.0,64,0.00,,---,0.01,336.00,VWS V14.00,2013-09-15 20:38:00,
2013-09-15 16:39:00,71.0,57.8,30.07,SW,229,0.0,8.0,63,0.00,,---,0.01,392.00,VWS V14.00,2013-09-15 20:39:00,
2013-09-15 16:40:00,71.0,58.2,30.07,SE,136,1.0,8.0,64,0.00,,---,0.01,369.00,VWS V14.00,2013-09-15 20:40:00,
2013-09-15 16:41:00,71.1,57.9,30.07,SW,230,3.0,8.0,63,0.00,,---,0.01,401.00,VWS V14.00,2013-09-15 20:41:00,
2013-09-15 16:42:00,71.1,57.4,30.07,WSW,241,5.0,8.0,62,0.00,,---,0.01,330.00,VWS V14.00,2013-09-15 20:42:00,
2013-09-15 16:43:00,71.1,57.9,30.07,WSW,244,0.0,8.0,63,0.00,,---,0.01,255.00,VWS V14.00,2013-09-15 20:43:00,
2013-09-15 16:44:00,71.1,57.4,30.07,SW,226,0.0,8.0,62,0.00,,---,0.01,253.00,VWS V14.00,2013-09-15 20:44:00,
2013-09-15 16:45:00,71.1,57.4,30.07,WSW,247,2.0,8.0,62,0.00,,---,0.01,299.00,VWS V14.00,2013-09-15 20:45:00,
2013-09-15 16:46:00,71.1,57.4,30.07,WSW,257,1.0,8.0,62,0.00,,---,0.01,322.00,VWS V14.00,2013-09-15 20:46:00,
2013-09-15 16:47:00,71.2,57.5,30.07,WSW,250,0.0,8.0,62,0.00,,---,0.01,334.00,VWS V14.00,2013-09-15 20:47:00,
2013-09-15 16:48:00,71.1,57.4,30.07,West,264,4.0,8.0,62,0.00,,---,0.01,294.00,VWS V14.00,2013-09-15 20:48:00,
2013-09-15 16:49:00,71.1,57.4,30.07,WSW,250,3.0,8.0,62,0.00,,---,0.01,248.00,VWS V14.00,2013-09-15 20:49:00,
2013-09-15 16:50:00,71.1,57.4,30.07,WSW,248,1.0,8.0,62,0.00,,---,0.01,269.00,VWS V14.00,2013-09-15 20:50:00,
2013-09-15 16:51:00,71.1,58.3,30.07,WSW,248,0.0,8.0,64,0.00,,---,0.01,287.00,VWS V14.00,2013-09-15 20:51:00,
2013-09-15 16:52:00,71.1,57.9,30.07,WSW,238,1.0,8.0,63,0.00,,---,0.01,334.00,VWS V14.00,2013-09-15 20:52:00,
2013-09-15 16:53:00,71.1,57.0,30.07,West,260,0.0,8.0,61,0.00,,---,0.01,332.00,VWS V14.00,2013-09-15 20:53:00,
2013-09-15 16:54:00,71.1,57.4,30.07,SSE,150,0.0,8.0,62,0.00,,---,0.01,302.00,VWS V14.00,2013-09-15 20:54:00,
2013-09-15 16:55:00,71.1,57.9,30.07,West,271,2.0,8.0,63,0.00,,---,0.01,304.00,VWS V14.00,2013-09-15 20:55:00,
2013-09-15 16:56:00,71.1,57.4,30.07,West,269,4.0,8.0,62,0.00,,---,0.01,309.00,VWS V14.00,2013-09-15 20:56:00,
2013-09-15 16:57:00,71.1,56.5,30.07,West,269,4.0,8.0,60,0.00,,---,0.01,287.00,VWS V14.00,2013-09-15 20:57:00,
2013-09-15 16:58:00,71.1,56.5,30.07,WSW,255,6.0,8.0,60,0.00,,---,0.01,272.00,VWS V14.00,2013-09-15 20:58:00,
2013-09-15 16:59:00,71.1,57.0,30.06,SW,234,0.0,8.0,61,0.00,,---,0.01,250.00,VWS V14.00,2013-09-15 20:59:00,
2013-09-15 17:00:00,71.1,57.4,30.06,SW,234,0.0,8.0,62,0.00,,---,0.01,229.00,VWS V14.00,2013-09-15 21:00:00,
2013-09-15 17:01:00,71.1,57.4,30.06,SW,230,1.0,3.0,62,0.00,,---,0.01,213.00,VWS V14.00,2013-09-15 21:01:00,
2013-09-15 17:02:00,71.1,57.0,30.06,ESE,121,0.0,3.0,61,0.00,,---,0.01,207.00,VWS V14.00,2013-09-15 21:02:00,
2013-09-15 17:03:00,71.0,56.4,30.06,SSE,162,1.0,3.0,60,0.00,,---,0.01,209.00,VWS V14.00,2013-09-15 21:03:00,
2013-09-15 17:04:00,71.0,56.9,30.06,WSW,243,0.0,5.0,61,0.00,,---,0.01,199.00,VWS V14.00,2013-09-15 21:04:00,
2013-09-15 17:05:00,71.0,56.9,30.06,SW,216,1.0,5.0,61,0.00,,---,0.01,169.00,VWS V14.00,2013-09-15 21:05:00,
2013-09-15 17:06:00,70.9,56.8,30.06,WSW,256,3.0,6.0,61,0.00,,---,0.01,179.00,VWS V14.00,2013-09-15 21:06:00,
2013-09-15 17:07:00,70.9,56.8,30.06,WSW,258,2.0,6.0,61,0.00,,---,0.01,171.00,VWS V14.00,2013-09-15 21:07:00,
2013-09-15 17:08:00,70.8,57.2,30.06,SW,229,3.0,8.0,62,0.00,,---,0.01,155.00,VWS V14.00,2013-09-15 21:08:00,
2013-09-15 17:09:00,70.7,56.6,30.06,West,273,8.0,8.0,61,0.00,,---,0.01,158.00,VWS V14.00,2013-09-15 21:09:00,
2013-09-15 17:10:00,70.6,56.5,30.06,WSW,257,5.0,13.0,61,0.00,,---,0.01,149.00,VWS V14.00,2013-09-15 21:10:00,
2013-09-15 17:11:00,70.5,57.3,30.06,WSW,248,0.0,13.0,63,0.00,,---,0.01,153.00,VWS V14.00,2013-09-15 21:11:00,
2013-09-15 17:12:00,70.4,56.8,30.06,SSE,159,5.0,13.0,62,0.00,,---,0.01,144.00,VWS V14.00,2013-09-15 21:12:00,
2013-09-15 17:13:00,70.3,56.7,30.06,SSW,196,0.0,13.0,62,0.00,,---,0.01,135.00,VWS V14.00,2013-09-15 21:13:00,
2013-09-15 17:14:00,70.2,56.6,30.06,South,169,4.0,13.0,62,0.00,,---,0.01,128.00,VWS V14.00,2013-09-15 21:14:00,
2013-09-15 17:15:00,70.2,56.6,30.07,SW,232,2.0,13.0,62,0.00,,---,0.01,127.00,VWS V14.00,2013-09-15 21:15:00,
2013-09-15 17:16:00,70.0,56.4,30.07,SE,138,1.0,13.0,62,0.00,,---,0.01,128.00,VWS V14.00,2013-09-15 21:16:00,
2013-09-15 17:17:00,69.9,56.3,30.07,West,272,4.0,13.0,62,0.00,,---,0.01,132.00,VWS V14.00,2013-09-15 21:17:00,
2013-09-15 17:18:00,69.9,56.8,30.07,SW,219,0.0,13.0,63,0.00,,---,0.01,128.00,VWS V14.00,2013-09-15 21:18:00,
2013-09-15 17:19:00,69.8,56.7,30.07,WNW,282,6.0,13.0,63,0.00,,---,0.01,125.00,VWS V14.00,2013-09-15 21:19:00,
2013-09-15 17:20:00,69.7,56.1,30.07,SSE,167,2.0,13.0,62,0.00,,---,0.01,128.00,VWS V14.00,2013-09-15 21:20:00,
2013-09-15 17:21:00,69.6,56.5,30.07,South,175,1.0,13.0,63,0.00,,---,0.01,130.00,VWS V14.00,2013-09-15 21:21:00,
2013-09-15 17:22:00,69.6,56.9,30.06,West,277,2.0,13.0,64,0.00,,---,0.01,134.00,VWS V14.00,2013-09-15 21:22:00,
2013-09-15 17:23:00,69.5,56.8,30.06,WSW,242,0.0,13.0,64,0.00,,---,0.01,151.00,VWS V14.00,2013-09-15 21:23:00,
2013-09-15 17:24:00,69.5,56.8,30.06,WSW,242,3.0,13.0,64,0.00,,---,0.01,149.00,VWS V14.00,2013-09-15 21:24:00,
2013-09-15 17:25:00,69.4,57.1,30.06,South,191,0.0,13.0,65,0.00,,---,0.01,153.00,VWS V14.00,2013-09-15 21:25:00,
2013-09-15 17:26:00,69.4,57.1,30.06,South,191,1.0,13.0,65,0.00,,---,0.01,160.00,VWS V14.00,2013-09-15 21:26:00,
2013-09-15 17:27:00,69.3,57.5,30.06,WSW,250,1.0,13.0,66,0.00,,---,0.01,163.00,VWS V14.00,2013-09-15 21:27:00,
2013-09-15 17:28:00,69.3,57.5,30.07,SW,231,1.0,13.0,66,0.00,,---,0.01,151.00,VWS V14.00,2013-09-15 21:28:00,
2013-09-15 17:29:00,69.3,57.5,30.06,WSW,242,2.0,13.0,66,0.00,,---,0.01,134.00,VWS V14.00,2013-09-15 21:29:00,
2013-09-15 17:30:00,69.2,57.0,30.06,WSW,242,0.0,13.0,65,0.00,,---,0.01,134.00,VWS V14.00,2013-09-15 21:30:00,
2013-09-15 17:31:00,69.2,57.0,30.06,West,261,3.0,6.0,65,0.00,,---,0.01,132.00,VWS V14.00,2013-09-15 21:31:00,
2013-09-15 17:32:00,69.2,57.0,30.06,West,261,1.0,6.0,65,0.00,,---,0.01,132.00,VWS V14.00,2013-09-15 21:32:00,
2013-09-15 17:33:00,69.2,57.4,30.06,WSW,242,2.0,6.0,66,0.00,,---,0.01,132.00,VWS V14.00,2013-09-15 21:33:00,
2013-09-15 17:34:00,69.1,57.7,30.06,WSW,242,0.0,6.0,67,0.00,,---,0.01,134.00,VWS V14.00,2013-09-15 21:34:00,
2013-09-15 17:35:00,69.1,57.3,30.06,WSW,239,0.0,6.0,66,0.00,,---,0.01,132.00,VWS V14.00,2013-09-15 21:35:00,
2013-09-15 17:36:00,69.1,57.7,30.06,WSW,241,0.0,6.0,67,0.00,,---,0.01,127.00,VWS V14.00,2013-09-15 21:36:00,
2013-09-15 17:37:00,69.1,57.7,30.06,SSE,152,4.0,6.0,67,0.00,,---,0.01,128.00,VWS V14.00,2013-09-15 21:37:00,
2013-09-15 17:38:00,69.0,57.2,30.06,WSW,250,4.0,6.0,66,0.00,,---,0.01,134.00,VWS V14.00,2013-09-15 21:38:00,
2013-09-15 17:39:00,69.0,57.2,30.06,SW,226,0.0,6.0,66,0.00,,---,0.01,134.00,VWS V14.00,2013-09-15 21:39:00,
2013-09-15 17:40:00,69.0,58.0,30.06,SW,226,0.0,6.0,68,0.00,,---,0.01,121.00,VWS V14.00,2013-09-15 21:40:00,
2013-09-15 17:41:00,69.0,58.0,30.06,SW,226,1.0,6.0,68,0.00,,---,0.01,113.00,VWS V14.00,2013-09-15 21:41:00,
2013-09-15 17:42:00,69.0,57.6,30.06,SW,226,0.0,6.0,67,0.00,,---,0.01,111.00,VWS V14.00,2013-09-15 21:42:00,
2013-09-15 17:43:00,68.9,57.9,30.06,SW,226,0.0,6.0,68,0.00,,---,0.01,109.00,VWS V14.00,2013-09-15 21:43:00,
2013-09-15 17:44:00,68.9,57.5,30.06,South,184,1.0,6.0,67,0.00,,---,0.01,109.00,VWS V14.00,2013-09-15 21:44:00,
2013-09-15 17:45:00,68.9,58.3,30.06,South,185,0.0,6.0,69,0.00,,---,0.01,109.00,VWS V14.00,2013-09-15 21:45:00,
2013-09-15 17:46:00,68.8,58.2,30.06,SW,222,0.0,6.0,69,0.00,,---,0.01,109.00,VWS V14.00,2013-09-15 21:46:00,
2013-09-15 17:47:00,68.8,57.8,30.06,SW,222,0.0,6.0,68,0.00,,---,0.01,135.00,VWS V14.00,2013-09-15 21:47:00,
2013-09-15 17:48:00,68.7,57.7,30.06,SW,222,0.0,6.0,68,0.00,,---,0.01,193.00,VWS V14.00,2013-09-15 21:48:00,
2013-09-15 17:49:00,68.7,57.7,30.06,SW,222,0.0,6.0,68,0.00,,---,0.01,149.00,VWS V14.00,2013-09-15 21:49:00,
2013-09-15 17:50:00,68.7,58.5,30.06,SW,222,0.0,6.0,70,0.00,,---,0.01,141.00,VWS V14.00,2013-09-15 21:50:00,
2013-09-15 17:51:00,68.7,58.1,30.06,SW,222,0.0,6.0,69,0.00,,---,0.01,139.00,VWS V14.00,2013-09-15 21:51:00,
2013-09-15 17:52:00,68.7,57.7,30.06,SW,222,2.0,6.0,68,0.00,,---,0.01,116.00,VWS V14.00,2013-09-15 21:52:00,
2013-09-15 17:53:00,68.7,57.3,30.06,SW,222,0.0,6.0,67,0.00,,---,0.01,114.00,VWS V14.00,2013-09-15 21:53:00,
2013-09-15 17:54:00,68.7,57.3,30.06,SW,222,0.0,6.0,67,0.00,,---,0.01,114.00,VWS V14.00,2013-09-15 21:54:00,
2013-09-15 17:55:00,68.7,58.1,30.06,SW,222,0.0,6.0,69,0.00,,---,0.01,113.00,VWS V14.00,2013-09-15 21:55:00,
2013-09-15 17:56:00,68.8,58.2,30.06,SW,222,0.0,6.0,69,0.00,,---,0.01,114.00,VWS V14.00,2013-09-15 21:56:00,
2013-09-15 17:57:00,68.8,58.2,30.06,South,180,2.0,6.0,69,0.00,,---,0.01,111.00,VWS V14.00,2013-09-15 21:57:00,
2013-09-15 17:58:00,68.8,58.2,30.06,South,179,0.0,6.0,69,0.00,,---,0.01,111.00,VWS V14.00,2013-09-15 21:58:00,
2013-09-15 17:59:00,68.8,57.8,30.06,South,179,0.0,6.0,68,0.00,,---,0.01,109.00,VWS V14.00,2013-09-15 21:59:00,
2013-09-15 18:00:00,68.8,57.8,30.06,South,179,0.0,6.0,68,0.00,,---,0.01,107.00,VWS V14.00,2013-09-15 22:00:00,
2013-09-15 18:01:00,68.8,57.8,30.06,South,179,1.0,2.0,68,0.00,,---,0.01,107.00,VWS V14.00,2013-09-15 22:01:00,
2013-09-15 18:02:00,68.8,57.4,30.06,South,179,0.0,2.0,67,0.00,,---,0.01,111.00,VWS V14.00,2013-09-15 22:02:00,
2013-09-15 18:03:00,68.8,58.2,30.06,South,179,0.0,2.0,69,0.00,,---,0.01,141.00,VWS V14.00,2013-09-15 22:03:00,
2013-09-15 18:04:00,68.8,58.2,30.06,South,179,0.0,2.0,69,0.00,,---,0.01,137.00,VWS V14.00,2013-09-15 22:04:00,
2013-09-15 18:05:00,68.8,58.2,30.06,South,179,0.0,2.0,69,0.00,,---,0.01,118.00,VWS V14.00,2013-09-15 22:05:00,
2013-09-15 18:06:00,68.8,57.8,30.06,South,179,0.0,2.0,68,0.00,,---,0.01,114.00,VWS V14.00,2013-09-15 22:06:00,
2013-09-15 18:07:00,68.9,58.3,30.06,South,179,0.0,2.0,69,0.00,,---,0.01,118.00,VWS V14.00,2013-09-15 22:07:00,
2013-09-15 18:08:00,68.9,59.1,30.06,South,179,0.0,2.0,71,0.00,,---,0.01,128.00,VWS V14.00,2013-09-15 22:08:00,
2013-09-15 18:09:00,68.9,58.7,30.06,South,179,0.0,2.0,70,0.00,,---,0.01,135.00,VWS V14.00,2013-09-15 22:09:00,
2013-09-15 18:10:00,69.0,58.4,30.06,South,179,0.0,2.0,69,0.00,,---,0.01,137.00,VWS V14.00,2013-09-15 22:10:00,
2013-09-15 18:11:00,69.0,58.4,30.06,South,179,0.0,2.0,69,0.00,,---,0.01,141.00,VWS V14.00,2013-09-15 22:11:00,
2013-09-15 18:12:00,69.0,58.8,30.06,South,179,0.0,2.0,70,0.00,,---,0.01,134.00,VWS V14.00,2013-09-15 22:12:00,
2013-09-15 18:13:00,69.1,58.5,30.06,South,179,0.0,2.0,69,0.00,,---,0.01,127.00,VWS V14.00,2013-09-15 22:13:00,
2013-09-15 18:14:00,69.1,58.9,30.06,South,179,0.0,2.0,70,0.00,,---,0.01,123.00,VWS V14.00,2013-09-15 22:14:00,
2013-09-15 18:15:00,69.2,59.0,30.06,South,179,1.0,2.0,70,0.00,,---,0.01,113.00,VWS V14.00,2013-09-15 22:15:00,
2013-09-15 18:16:00,69.2,58.6,30.06,SW,219,0.0,2.0,69,0.00,,---,0.01,104.00,VWS V14.00,2013-09-15 22:16:00,
2013-09-15 18:17:00,69.3,59.5,30.06,SW,219,0.0,2.0,71,0.00,,---,0.01,102.00,VWS V14.00,2013-09-15 22:17:00,
2013-09-15 18:18:00,69.3,59.1,30.06,SW,219,0.0,2.0,70,0.00,,---,0.01,95.00,VWS V14.00,2013-09-15 22:18:00,
2013-09-15 18:19:00,69.3,58.7,30.06,SW,219,0.0,2.0,69,0.00,,---,0.01,90.00,VWS V14.00,2013-09-15 22:19:00,
2013-09-15 18:20:00,69.3,59.1,30.06,SW,219,0.0,2.0,70,0.00,,---,0.01,86.00,VWS V14.00,2013-09-15 22:20:00,
2013-09-15 18:21:00,69.4,59.2,30.06,SW,219,0.0,2.0,70,0.00,,---,0.01,95.00,VWS V14.00,2013-09-15 22:21:00,
2013-09-15 18:22:00,69.4,59.2,30.06,SW,219,0.0,2.0,70,0.00,,---,0.01,88.00,VWS V14.00,2013-09-15 22:22:00,
2013-09-15 18:23:00,69.4,58.8,30.06,SW,221,2.0,2.0,69,0.00,,---,0.01,74.00,VWS V14.00,2013-09-15 22:23:00,
2013-09-15 18:24:00,69.4,58.8,30.06,SW,222,0.0,2.0,69,0.00,,---,0.01,65.00,VWS V14.00,2013-09-15 22:24:00,
2013-09-15 18:25:00,69.4,58.8,30.06,SW,221,1.0,2.0,69,0.00,,---,0.01,60.00,VWS V14.00,2013-09-15 22:25:00,
2013-09-15 18:26:00,69.4,58.8,30.06,SW,221,1.0,2.0,69,0.00,,---,0.01,56.00,VWS V14.00,2013-09-15 22:26:00,
2013-09-15 18:27:00,69.3,58.7,30.06,SW,221,0.0,2.0,69,0.00,,---,0.01,51.00,VWS V14.00,2013-09-15 22:27:00,
2013-09-15 18:28:00,69.3,58.7,30.06,SW,221,0.0,2.0,69,0.00,,---,0.01,37.00,VWS V14.00,2013-09-15 22:28:00,
2013-09-15 18:29:00,69.2,58.6,30.06,SW,222,0.0,2.0,69,0.00,,---,0.01,35.00,VWS V14.00,2013-09-15 22:29:00,
2013-09-15 18:30:00,69.2,58.6,30.06,SW,222,0.0,2.0,69,0.00,,---,0.01,33.00,VWS V14.00,2013-09-15 22:30:00,
2013-09-15 18:31:00,69.1,58.9,30.06,SW,222,0.0,0.0,70,0.00,,---,0.01,33.00,VWS V14.00,2013-09-15 22:31:00,
2013-09-15 18:32:00,69.0,58.8,30.06,SW,222,0.0,0.0,70,0.00,,---,0.01,35.00,VWS V14.00,2013-09-15 22:32:00,
2013-09-15 18:33:00,69.0,58.8,30.06,SW,221,0.0,0.0,70,0.00,,---,0.01,33.00,VWS V14.00,2013-09-15 22:33:00,
2013-09-15 18:34:00,68.9,58.7,30.06,SW,222,0.0,0.0,70,0.00,,---,0.01,32.00,VWS V14.00,2013-09-15 22:34:00,
2013-09-15 18:35:00,68.8,58.6,30.06,SW,222,0.0,0.0,70,0.00,,---,0.01,32.00,VWS V14.00,2013-09-15 22:35:00,
2013-09-15 18:36:00,68.7,58.5,30.06,SW,222,0.0,0.0,70,0.00,,---,0.01,30.00,VWS V14.00,2013-09-15 22:36:00,
2013-09-15 18:37:00,68.6,58.8,30.06,SW,222,0.0,0.0,71,0.00,,---,0.01,28.00,VWS V14.00,2013-09-15 22:37:00,
2013-09-15 18:38:00,68.6,58.8,30.06,SW,222,0.0,0.0,71,0.00,,---,0.01,26.00,VWS V14.00,2013-09-15 22:38:00,
2013-09-15 18:39:00,68.5,58.7,30.06,SW,221,0.0,0.0,71,0.00,,---,0.01,26.00,VWS V14.00,2013-09-15 22:39:00,
2013-09-15 18:40:00,68.5,58.7,30.06,SW,221,0.0,0.0,71,0.00,,---,0.01,28.00,VWS V14.00,2013-09-15 22:40:00,
2013-09-15 18:41:00,68.4,58.6,30.06,SW,222,0.0,0.0,71,0.00,,---,0.01,28.00,VWS V14.00,2013-09-15 22:41:00,
2013-09-15 18:42:00,68.3,58.9,30.06,SW,222,0.0,0.0,72,0.00,,---,0.01,28.00,VWS V14.00,2013-09-15 22:42:00,
2013-09-15 18:43:00,68.3,58.5,30.06,SW,221,0.0,0.0,71,0.00,,---,0.01,26.00,VWS V14.00,2013-09-15 22:43:00,
2013-09-15 18:44:00,68.2,58.8,30.06,WNW,302,0.0,0.0,72,0.00,,---,0.01,26.00,VWS V14.00,2013-09-15 22:44:00,
2013-09-15 18:45:00,68.1,58.3,30.06,WNW,302,0.0,0.0,71,0.00,,---,0.01,23.00,VWS V14.00,2013-09-15 22:45:00,
2013-09-15 18:46:00,68.1,58.7,30.06,WNW,302,0.0,0.0,72,0.00,,---,0.01,21.00,VWS V14.00,2013-09-15 22:46:00,
2013-09-15 18:47:00,68.1,58.7,30.06,NE,39,0.0,0.0,72,0.00,,---,0.01,19.00,VWS V14.00,2013-09-15 22:47:00,
2013-09-15 18:48:00,68.0,58.7,30.06,NNW,327,0.0,0.0,72,0.00,,---,0.01,19.00,VWS V14.00,2013-09-15 22:48:00,
2013-09-15 18:49:00,67.9,58.9,30.06,NNW,327,0.0,0.0,73,0.00,,---,0.01,19.00,VWS V14.00,2013-09-15 22:49:00,
2013-09-15 18:50:00,67.8,58.8,30.06,NNW,327,0.0,0.0,73,0.00,,---,0.01,19.00,VWS V14.00,2013-09-15 22:50:00,
2013-09-15 18:51:00,67.7,58.7,30.06,NNW,327,0.0,0.0,73,0.00,,---,0.01,18.00,VWS V14.00,2013-09-15 22:51:00,
2013-09-15 18:52:00,67.7,58.7,30.06,NNW,327,0.0,0.0,73,0.00,,---,0.01,18.00,VWS V14.00,2013-09-15 22:52:00,
2013-09-15 18:53:00,67.6,59.0,30.06,NNW,327,0.0,0.0,74,0.00,,---,0.01,16.00,VWS V14.00,2013-09-15 22:53:00,
2013-09-15 18:54:00,67.5,58.9,30.06,NW,320,0.0,0.0,74,0.00,,---,0.01,14.00,VWS V14.00,2013-09-15 22:54:00,
2013-09-15 18:55:00,67.5,58.9,30.06,NNE,16,0.0,0.0,74,0.00,,---,0.01,14.00,VWS V14.00,2013-09-15 22:55:00,
2013-09-15 18:56:00,67.4,58.8,30.06,NNE,16,0.0,0.0,74,0.00,,---,0.01,12.00,VWS V14.00,2013-09-15 22:56:00,
2013-09-15 18:57:00,67.3,58.7,30.06,NNE,16,0.0,0.0,74,0.00,,---,0.01,12.00,VWS V14.00,2013-09-15 22:57:00,
2013-09-15 18:58:00,67.1,58.9,30.06,NNE,16,0.0,0.0,75,0.00,,---,0.01,12.00,VWS V14.00,2013-09-15 22:58:00,
2013-09-15 18:59:00,67.1,58.9,30.06,NNE,16,0.0,0.0,75,0.00,,---,0.01,12.00,VWS V14.00,2013-09-15 22:59:00,
2013-09-15 19:00:00,66.9,58.7,30.06,NNE,16,0.0,0.0,75,0.00,,---,0.01,11.00,VWS V14.00,2013-09-15 23:00:00,
2013-09-15 19:01:00,66.8,58.6,30.05,NNE,16,0.0,0.0,75,0.00,,---,0.01,11.00,VWS V14.00,2013-09-15 23:01:00,
2013-09-15 19:02:00,66.7,58.5,30.06,NNW,348,0.0,0.0,75,0.00,,---,0.01,9.00,VWS V14.00,2013-09-15 23:02:00,
2013-09-15 19:03:00,66.6,58.4,30.06,NNW,346,0.0,0.0,75,0.00,,---,0.01,7.00,VWS V14.00,2013-09-15 23:03:00,
2013-09-15 19:04:00,66.5,58.7,30.05,NNW,346,0.0,0.0,76,0.00,,---,0.01,5.00,VWS V14.00,2013-09-15 23:04:00,
2013-09-15 19:05:00,66.4,58.6,30.05,NNW,346,0.0,0.0,76,0.00,,---,0.01,5.00,VWS V14.00,2013-09-15 23:05:00,
2013-09-15 19:06:00,66.2,58.4,30.05,NNW,346,0.0,0.0,76,0.00,,---,0.01,5.00,VWS V14.00,2013-09-15 23:06:00,
2013-09-15 19:07:00,66.1,58.3,30.05,NNW,346,0.0,0.0,76,0.00,,---,0.01,0.00,VWS V14.00,2013-09-15 23:07:00,
2013-09-15 19:08:00,66.0,58.6,30.05,NNW,346,0.0,0.0,77,0.00,,---,0.01,0.00,VWS V14.00,2013-09-15 23:08:00,
2013-09-15 19:09:00,65.9,58.5,30.05,NNW,346,0.0,0.0,77,0.00,,---,0.01,0.00,VWS V14.00,2013-09-15 23:09:00,
2013-09-15 19:10:00,65.8,58.4,30.05,NNW,346,0.0,0.0,77,0.00,,---,0.01,0.00,VWS V14.00,2013-09-15 23:10:00,
2013-09-15 19:11:00,65.7,58.7,30.05,NNW,346,0.0,0.0,78,0.00,,---,0.01,0.00,VWS V14.00,2013-09-15 23:11:00,
2013-09-15 19:12:00,65.6,58.6,30.05,NNW,346,0.0,0.0,78,0.00,,---,0.01,0.00,VWS V14.00,2013-09-15 23:12:00,
2013-09-15 19:13:00,65.5,58.5,30.05,NNW,346,0.0,0.0,78,0.00,,---,0.01,0.00,VWS V14.00,2013-09-15 23:13:00,
2013-09-15 19:14:00,65.4,58.7,30.05,NNW,346,0.0,0.0,79,0.00,,---,0.01,0.00,VWS V14.00,2013-09-15 23:14:00,
2013-09-15 19:15:00,65.3,58.6,30.05,NNW,346,0.0,0.0,79,0.00,,---,0.01,0.00,VWS V14.00,2013-09-15 23:15:00,
2013-09-15 19:16:00,65.2,58.5,30.05,NNW,346,0.0,0.0,79,0.00,,---,0.01,0.00,VWS V14.00,2013-09-15 23:16:00,
2013-09-15 19:17:00,65.1,58.4,30.05,NNW,346,0.0,0.0,79,0.00,,---,0.01,0.00,VWS V14.00,2013-09-15 23:17:00,
2013-09-15 19:18:00,65.0,58.7,30.05,NNW,346,0.0,0.0,80,0.00,,---,0.01,0.00,VWS V14.00,2013-09-15 23:18:00,
2013-09-15 19:19:00,64.9,58.6,30.05,NNW,346,0.0,0.0,80,0.00,,---,0.01,0.00,VWS V14.00,2013-09-15 23:19:00,
2013-09-15 19:20:00,64.8,58.8,30.06,NNW,346,0.0,0.0,81,0.00,,---,0.01,0.00,VWS V14.00,2013-09-15 23:20:00,
2013-09-15 19:21:00,64.7,58.7,30.06,NNW,346,0.0,0.0,81,0.00,,---,0.01,0.00,VWS V14.00,2013-09-15 23:21:00,
2013-09-15 19:22:00,64.6,58.7,30.06,NNW,346,0.0,0.0,81,0.00,,---,0.01,0.00,VWS V14.00,2013-09-15 23:22:00,
2013-09-15 19:23:00,64.5,58.5,30.06,NNW,346,0.0,0.0,81,0.00,,---,0.01,0.00,VWS V14.00,2013-09-15 23:23:00,
2013-09-15 19:24:00,64.4,58.5,30.06,NNW,346,0.0,0.0,81,0.00,,---,0.01,0.00,VWS V14.00,2013-09-15 23:24:00,
2013-09-15 19:25:00,64.3,58.7,30.06,NNW,346,0.0,0.0,82,0.00,,---,0.01,0.00,VWS V14.00,2013-09-15 23:25:00,
2013-09-15 19:26:00,64.2,58.6,30.06,NNW,346,0.0,0.0,82,0.00,,---,0.01,0.00,VWS V14.00,2013-09-15 23:26:00,
2013-09-15 19:27:00,64.1,58.5,30.06,NNW,346,0.0,0.0,82,0.00,,---,0.01,0.00,VWS V14.00,2013-09-15 23:27:00,
2013-09-15 19:28:00,63.9,58.3,30.06,NNW,346,0.0,0.0,82,0.00,,---,0.01,0.00,VWS V14.00,2013-09-15 23:28:00,
2013-09-15 19:29:00,63.8,58.5,30.06,NNW,346,0.0,0.0,83,0.00,,---,0.01,0.00,VWS V14.00,2013-09-15 23:29:00,
2013-09-15 19:30:00,63.7,58.5,30.06,NNW,346,0.0,0.0,83,0.00,,---,0.01,0.00,VWS V14.00,2013-09-15 23:30:00,
2013-09-15 19:31:00,63.6,58.3,30.06,NNW,346,0.0,0.0,83,0.00,,---,0.01,0.00,VWS V14.00,2013-09-15 23:31:00,
2013-09-15 19:32:00,63.5,58.2,30.06,NNW,346,0.0,0.0,83,0.00,,---,0.01,0.00,VWS V14.00,2013-09-15 23:32:00,
2013-09-15 19:33:00,63.4,58.2,30.06,NNW,346,0.0,0.0,83,0.00,,---,0.01,0.00,VWS V14.00,2013-09-15 23:33:00,
2013-09-15 19:34:00,63.3,58.1,30.05,NNW,346,0.0,0.0,83,0.00,,---,0.01,0.00,VWS V14.00,2013-09-15 23:34:00,
2013-09-15 19:35:00,63.2,58.3,30.05,NNW,346,0.0,0.0,84,0.00,,---,0.01,0.00,VWS V14.00,2013-09-15 23:35:00,
2013-09-15 19:36:00,63.1,58.5,30.05,NNW,346,0.0,0.0,85,0.00,,---,0.01,0.00,VWS V14.00,2013-09-15 23:36:00,
2013-09-15 19:37:00,63.0,58.4,30.05,NNW,346,0.0,0.0,85,0.00,,---,0.01,0.00,VWS V14.00,2013-09-15 23:37:00,
2013-09-15 19:38:00,62.9,58.3,30.05,NNW,346,0.0,0.0,85,0.00,,---,0.01,0.00,VWS V14.00,2013-09-15 23:38:00,
2013-09-15 19:39:00,62.8,58.6,30.05,NNW,346,0.0,0.0,86,0.00,,---,0.01,0.00,VWS V14.00,2013-09-15 23:39:00,
2013-09-15 19:40:00,62.7,58.5,30.05,NNW,346,0.0,0.0,86,0.00,,---,0.01,0.00,VWS V14.00,2013-09-15 23:40:00,
2013-09-15 19:41:00,62.6,58.4,30.05,NNW,346,0.0,0.0,86,0.00,,---,0.01,0.00,VWS V14.00,2013-09-15 23:41:00,
2013-09-15 19:42:00,62.5,58.3,30.05,NNW,346,0.0,0.0,86,0.00,,---,0.01,0.00,VWS V14.00,2013-09-15 23:42:00,
2013-09-15 19:43:00,62.3,58.1,30.05,NNW,346,0.0,0.0,86,0.00,,---,0.01,0.00,VWS V14.00,2013-09-15 23:43:00,
2013-09-15 19:44:00,62.2,58.3,30.05,NNW,346,0.0,0.0,87,0.00,,---,0.01,0.00,VWS V14.00,2013-09-15 23:44:00,
2013-09-15 19:45:00,62.1,58.2,30.05,NNW,346,0.0,0.0,87,0.00,,---,0.01,0.00,VWS V14.00,2013-09-15 23:45:00,
2013-09-15 19:46:00,62.0,58.1,30.05,NNW,346,0.0,0.0,87,0.00,,---,0.01,0.00,VWS V14.00,2013-09-15 23:46:00,
2013-09-15 19:47:00,61.9,58.0,30.05,NNW,346,0.0,0.0,87,0.00,,---,0.01,0.00,VWS V14.00,2013-09-15 23:47:00,
2013-09-15 19:48:00,61.8,57.9,30.05,NNW,346,0.0,0.0,87,0.00,,---,0.01,0.00,VWS V14.00,2013-09-15 23:48:00,
2013-09-15 19:49:00,61.7,57.8,30.05,NNW,346,0.0,0.0,87,0.00,,---,0.01,0.00,VWS V14.00,2013-09-15 23:49:00,
2013-09-15 19:50:00,61.6,57.7,30.05,NNW,346,0.0,0.0,87,0.00,,---,0.01,0.00,VWS V14.00,2013-09-15 23:50:00,
2013-09-15 19:51:00,61.5,57.6,30.05,NNW,346,0.0,0.0,87,0.00,,---,0.01,0.00,VWS V14.00,2013-09-15 23:51:00,
2013-09-15 19:52:00,61.5,57.6,30.05,NNW,346,0.0,0.0,87,0.00,,---,0.01,0.00,VWS V14.00,2013-09-15 23:52:00,
2013-09-15 19:53:00,61.4,57.8,30.05,NNW,346,0.0,0.0,88,0.00,,---,0.01,0.00,VWS V14.00,2013-09-15 23:53:00,
2013-09-15 19:54:00,61.3,57.7,30.05,NNW,346,0.0,0.0,88,0.00,,---,0.01,0.00,VWS V14.00,2013-09-15 23:54:00,
2013-09-15 19:55:00,61.3,57.7,30.05,NNW,346,0.0,0.0,88,0.00,,---,0.01,0.00,VWS V14.00,2013-09-15 23:55:00,
2013-09-15 19:56:00,61.2,57.6,30.05,NNW,346,0.0,0.0,88,0.00,,---,0.01,0.00,VWS V14.00,2013-09-15 23:56:00,
2013-09-15 19:57:00,61.1,57.8,30.05,NNW,346,0.0,0.0,89,0.00,,---,0.01,0.00,VWS V14.00,2013-09-15 23:57:00,
2013-09-15 19:58:00,61.0,57.7,30.05,NNW,346,0.0,0.0,89,0.00,,---,0.01,0.00,VWS V14.00,2013-09-15 23:58:00,
2013-09-15 19:59:00,61.0,57.7,30.05,NNW,346,0.0,0.0,89,0.00,,---,0.01,0.00,VWS V14.00,2013-09-15 23:59:00,
2013-09-15 20:00:00,60.9,57.6,30.05,NNW,346,0.0,0.0,89,0.00,,---,0.01,0.00,VWS V14.00,2013-09-16 00:00:00,
2013-09-15 20:01:00,60.9,57.6,30.05,NNW,346,0.0,0.0,89,0.00,,---,0.01,0.00,VWS V14.00,2013-09-16 00:01:00,
2013-09-15 20:02:00,60.8,57.5,30.05,NNW,346,0.0,0.0,89,0.00,,---,0.01,0.00,VWS V14.00,2013-09-16 00:02:00,
2013-09-15 20:03:00,60.7,57.8,30.05,NNW,346,0.0,0.0,90,0.00,,---,0.01,0.00,VWS V14.00,2013-09-16 00:03:00,
2013-09-15 20:04:00,60.6,57.7,30.05,NNW,346,0.0,0.0,90,0.00,,---,0.01,0.00,VWS V14.00,2013-09-16 00:04:00,
2013-09-15 20:05:00,60.6,57.7,30.05,NNW,346,0.0,0.0,90,0.00,,---,0.01,0.00,VWS V14.00,2013-09-16 00:05:00,
2013-09-15 20:06:00,60.5,57.6,30.05,NNW,346,0.0,0.0,90,0.00,,---,0.01,0.00,VWS V14.00,2013-09-16 00:06:00,
2013-09-15 20:07:00,60.4,57.5,30.05,NNW,346,0.0,0.0,90,0.00,,---,0.01,0.00,VWS V14.00,2013-09-16 00:07:00,
2013-09-15 20:08:00,60.4,57.5,30.05,NNW,346,0.0,0.0,90,0.00,,---,0.01,0.00,VWS V14.00,2013-09-16 00:08:00,
2013-09-15 20:09:00,60.3,57.4,30.05,NNW,346,0.0,0.0,90,0.00,,---,0.01,0.00,VWS V14.00,2013-09-16 00:09:00,
2013-09-15 20:10:00,60.2,57.3,30.05,NNW,346,0.0,0.0,90,0.00,,---,0.01,0.00,VWS V14.00,2013-09-16 00:10:00,
2013-09-15 20:11:00,60.2,57.3,30.05,NNW,346,0.0,0.0,90,0.00,,---,0.01,0.00,VWS V14.00,2013-09-16 00:11:00,
2013-09-15 20:12:00,60.1,57.2,30.05,NNW,346,0.0,0.0,90,0.00,,---,0.01,0.00,VWS V14.00,2013-09-16 00:12:00,
2013-09-15 20:13:00,60.0,57.1,30.05,NNW,346,0.0,0.0,90,0.00,,---,0.01,0.00,VWS V14.00,2013-09-16 00:13:00,
2013-09-15 20:14:00,60.0,57.1,30.05,NNW,346,0.0,0.0,90,0.00,,---,0.01,0.00,VWS V14.00,2013-09-16 00:14:00,
2013-09-15 20:15:00,59.9,57.0,30.05,NNW,346,0.0,0.0,90,0.00,,---,0.01,0.00,VWS V14.00,2013-09-16 00:15:00,
2013-09-15 20:16:00,59.9,57.3,30.05,NNW,346,0.0,0.0,91,0.00,,---,0.01,0.00,VWS V14.00,2013-09-16 00:16:00,
2013-09-15 20:17:00,59.8,57.2,30.05,NNW,346,0.0,0.0,91,0.00,,---,0.01,0.00,VWS V14.00,2013-09-16 00:17:00,
2013-09-15 20:18:00,59.8,57.2,30.05,NNW,346,0.0,0.0,91,0.00,,---,0.01,0.00,VWS V14.00,2013-09-16 00:18:00,
2013-09-15 20:19:00,59.7,57.1,30.05,NNW,346,0.0,0.0,91,0.00,,---,0.01,0.00,VWS V14.00,2013-09-16 00:19:00,
2013-09-15 20:20:00,59.7,57.1,30.05,NNW,346,0.0,0.0,91,0.00,,---,0.01,0.00,VWS V14.00,2013-09-16 00:20:00,
2013-09-15 20:21:00,59.6,57.0,30.06,NNW,346,0.0,0.0,91,0.00,,---,0.01,0.00,VWS V14.00,2013-09-16 00:21:00,
2013-09-15 20:22:00,59.5,56.9,30.06,NNW,346,0.0,0.0,91,0.00,,---,0.01,0.00,VWS V14.00,2013-09-16 00:22:00,
2013-09-15 20:23:00,59.5,57.2,30.06,NNW,346,0.0,0.0,92,0.00,,---,0.01,0.00,VWS V14.00,2013-09-16 00:23:00,
2013-09-15 20:24:00,59.5,57.2,30.06,NNW,346,0.0,0.0,92,0.00,,---,0.01,0.00,VWS V14.00,2013-09-16 00:24:00,
2013-09-15 20:25:00,59.4,57.1,30.06,NNW,346,0.0,0.0,92,0.00,,---,0.01,0.00,VWS V14.00,2013-09-16 00:25:00,
2013-09-15 20:26:00,59.4,57.1,30.06,NNW,346,0.0,0.0,92,0.00,,---,0.01,0.00,VWS V14.00,2013-09-16 00:26:00,
2013-09-15 20:27:00,59.3,57.0,30.06,NNW,346,0.0,0.0,92,0.00,,---,0.01,0.00,VWS V14.00,2013-09-16 00:27:00,
2013-09-15 20:28:00,59.3,57.0,30.06,NNW,346,0.0,0.0,92,0.00,,---,0.01,0.00,VWS V14.00,2013-09-16 00:28:00,
2013-09-15 20:29:00,59.2,56.9,30.06,NNW,346,0.0,0.0,92,0.00,,---,0.01,0.00,VWS V14.00,2013-09-16 00:29:00,
2013-09-15 20:30:00,59.2,56.9,30.06,NNW,346,0.0,0.0,92,0.00,,---,0.01,0.00,VWS V14.00,2013-09-16 00:30:00,
2013-09-15 20:31:00,59.1,57.1,30.06,NNW,346,0.0,0.0,93,0.00,,---,0.01,0.00,VWS V14.00,2013-09-16 00:31:00,
2013-09-15 20:32:00,59.1,57.1,30.07,NNW,346,0.0,0.0,93,0.00,,---,0.01,0.00,VWS V14.00,2013-09-16 00:32:00,
2013-09-15 20:33:00,59.1,57.1,30.06,NNW,346,0.0,0.0,93,0.00,,---,0.01,0.00,VWS V14.00,2013-09-16 00:33:00,
2013-09-15 20:34:00,59.0,57.0,30.06,NNW,346,0.0,0.0,93,0.00,,---,0.01,0.00,VWS V14.00,2013-09-16 00:34:00,
2013-09-15 20:35:00,59.0,57.0,30.06,NNW,346,0.0,0.0,93,0.00,,---,0.01,0.00,VWS V14.00,2013-09-16 00:35:00,
2013-09-15 20:36:00,59.0,57.0,30.06,NNW,346,0.0,0.0,93,0.00,,---,0.01,0.00,VWS V14.00,2013-09-16 00:36:00,
2013-09-15 20:37:00,58.9,56.9,30.06,NNW,346,0.0,0.0,93,0.00,,---,0.01,0.00,VWS V14.00,2013-09-16 00:37:00,
2013-09-15 20:38:00,58.9,56.9,30.06,NNW,346,0.0,0.0,93,0.00,,---,0.01,0.00,VWS V14.00,2013-09-16 00:38:00,
2013-09-15 20:39:00,58.9,56.9,30.06,NNW,346,0.0,0.0,93,0.00,,---,0.01,0.00,VWS V14.00,2013-09-16 00:39:00,
2013-09-15 20:40:00,58.9,56.9,30.06,NNW,346,0.0,0.0,93,0.00,,---,0.01,0.00,VWS V14.00,2013-09-16 00:40:00,
2013-09-15 20:41:00,58.8,56.8,30.06,NNW,346,0.0,0.0,93,0.00,,---,0.01,0.00,VWS V14.00,2013-09-16 00:41:00,
2013-09-15 20:42:00,58.8,56.8,30.07,NNW,346,0.0,0.0,93,0.00,,---,0.01,0.00,VWS V14.00,2013-09-16 00:42:00,
2013-09-15 20:43:00,58.8,56.8,30.07,NNW,346,0.0,0.0,93,0.00,,---,0.01,0.00,VWS V14.00,2013-09-16 00:43:00,
2013-09-15 20:44:00,58.7,56.7,30.06,NNW,346,0.0,0.0,93,0.00,,---,0.01,0.00,VWS V14.00,2013-09-16 00:44:00,
2013-09-15 20:45:00,58.7,56.7,30.07,NNW,346,0.0,0.0,93,0.00,,---,0.01,0.00,VWS V14.00,2013-09-16 00:45:00,
2013-09-15 20:46:00,58.7,56.7,30.07,NNW,346,0.0,0.0,93,0.00,,---,0.01,0.00,VWS V14.00,2013-09-16 00:46:00,
2013-09-15 20:47:00,58.7,56.7,30.07,NNW,346,0.0,1.0,93,0.00,,---,0.01,0.00,VWS V14.00,2013-09-16 00:47:00,
2013-09-15 20:48:00,58.7,56.7,30.07,NNW,346,0.0,1.0,93,0.00,,---,0.01,0.00,VWS V14.00,2013-09-16 00:48:00,
2013-09-15 20:49:00,58.6,56.6,30.07,NNW,346,0.0,1.0,93,0.00,,---,0.01,0.00,VWS V14.00,2013-09-16 00:49:00,
2013-09-15 20:50:00,58.6,56.9,30.07,NNW,346,0.0,1.0,94,0.00,,---,0.01,0.00,VWS V14.00,2013-09-16 00:50:00,
2013-09-15 20:51:00,58.6,56.9,30.07,NNW,346,0.0,1.0,94,0.00,,---,0.01,0.00,VWS V14.00,2013-09-16 00:51:00,
2013-09-15 20:52:00,58.6,56.6,30.07,NNW,346,0.0,1.0,93,0.00,,---,0.01,0.00,VWS V14.00,2013-09-16 00:52:00,
2013-09-15 20:53:00,58.5,56.8,30.07,NNW,346,0.0,1.0,94,0.00,,---,0.01,0.00,VWS V14.00,2013-09-16 00:53:00,
2013-09-15 20:54:00,58.5,56.8,30.07,NNW,346,0.0,1.0,94,0.00,,---,0.01,0.00,VWS V14.00,2013-09-16 00:54:00,
2013-09-15 20:55:00,58.5,56.8,30.07,NNW,346,0.0,1.0,94,0.00,,---,0.01,0.00,VWS V14.00,2013-09-16 00:55:00,
2013-09-15 20:56:00,58.5,56.5,30.07,NNW,346,0.0,1.0,93,0.00,,---,0.01,0.00,VWS V14.00,2013-09-16 00:56:00,
2013-09-15 20:57:00,58.4,56.4,30.07,NNW,346,0.0,1.0,93,0.00,,---,0.01,0.00,VWS V14.00,2013-09-16 00:57:00,
2013-09-15 20:58:00,58.4,56.4,30.07,NNW,346,0.0,1.0,93,0.00,,---,0.01,0.00,VWS V14.00,2013-09-16 00:58:00,
2013-09-15 20:59:00,58.4,56.4,30.07,NNW,346,0.0,1.0,93,0.00,,---,0.01,0.00,VWS V14.00,2013-09-16 00:59:00,
2013-09-15 21:00:00,58.3,56.3,30.07,NNW,346,0.0,1.0,93,0.00,,---,0.01,0.00,VWS V14.00,2013-09-16 01:00:00,
2013-09-15 21:01:00,58.3,56.6,30.08,NNW,346,0.0,0.0,94,0.00,,---,0.01,0.00,VWS V14.00,2013-09-16 01:01:00,
2013-09-15 21:02:00,58.3,56.6,30.07,NNW,346,0.0,0.0,94,0.00,,---,0.01,0.00,VWS V14.00,2013-09-16 01:02:00,
2013-09-15 21:03:00,58.2,56.5,30.07,NNW,346,0.0,0.0,94,0.00,,---,0.01,0.00,VWS V14.00,2013-09-16 01:03:00,
2013-09-15 21:04:00,58.2,56.5,30.08,NNW,346,0.0,0.0,94,0.00,,---,0.01,0.00,VWS V14.00,2013-09-16 01:04:00,
2013-09-15 21:05:00,58.2,56.5,30.07,NNW,346,0.0,0.0,94,0.00,,---,0.01,0.00,VWS V14.00,2013-09-16 01:05:00,
2013-09-15 21:06:00,58.2,56.5,30.07,NNW,346,0.0,0.0,94,0.00,,---,0.01,0.00,VWS V14.00,2013-09-16 01:06:00,
2013-09-15 21:07:00,58.1,56.4,30.07,NNW,346,0.0,0.0,94,0.00,,---,0.01,0.00,VWS V14.00,2013-09-16 01:07:00,
2013-09-15 21:08:00,58.1,56.4,30.08,NNW,346,0.0,0.0,94,0.00,,---,0.01,0.00,VWS V14.00,2013-09-16 01:08:00,
2013-09-15 21:09:00,58.1,56.4,30.08,NNW,346,0.0,0.0,94,0.00,,---,0.01,0.00,VWS V14.00,2013-09-16 01:09:00,
2013-09-15 21:10:00,58.1,56.4,30.07,NNW,346,0.0,0.0,94,0.00,,---,0.01,0.00,VWS V14.00,2013-09-16 01:10:00,
2013-09-15 21:11:00,58.1,56.4,30.08,NNW,346,0.0,0.0,94,0.00,,---,0.01,0.00,VWS V14.00,2013-09-16 01:11:00,
2013-09-15 21:12:00,58.0,56.3,30.08,NNW,346,0.0,0.0,94,0.00,,---,0.01,0.00,VWS V14.00,2013-09-16 01:12:00,
2013-09-15 21:13:00,58.0,56.3,30.08,NNW,346,0.0,0.0,94,0.00,,---,0.01,0.00,VWS V14.00,2013-09-16 01:13:00,
2013-09-15 21:14:00,57.9,56.2,30.08,NNW,346,0.0,0.0,94,0.00,,---,0.01,0.00,VWS V14.00,2013-09-16 01:14:00,
2013-09-15 21:15:00,57.9,56.2,30.08,NNW,346,0.0,0.0,94,0.00,,---,0.01,0.00,VWS V14.00,2013-09-16 01:15:00,
2013-09-15 21:16:00,57.8,56.1,30.08,NNW,346,0.0,0.0,94,0.00,,---,0.01,0.00,VWS V14.00,2013-09-16 01:16:00,
2013-09-15 21:17:00,57.8,56.1,30.08,NNW,346,0.0,0.0,94,0.00,,---,0.01,0.00,VWS V14.00,2013-09-16 01:17:00,
2013-09-15 21:18:00,57.8,56.1,30.08,NNW,346,0.0,0.0,94,0.00,,---,0.01,0.00,VWS V14.00,2013-09-16 01:18:00,
2013-09-15 21:19:00,57.8,56.1,30.08,NNW,346,0.0,0.0,94,0.00,,---,0.01,0.00,VWS V14.00,2013-09-16 01:19:00,
2013-09-15 21:20:00,57.7,56.0,30.07,NNW,346,0.0,0.0,94,0.00,,---,0.01,0.00,VWS V14.00,2013-09-16 01:20:00,
2013-09-15 21:21:00,57.8,56.4,30.07,NNW,346,0.0,0.0,95,0.00,,---,0.01,0.00,VWS V14.00,2013-09-16 01:21:00,
2013-09-15 21:22:00,57.8,56.4,30.07,NNW,346,0.0,0.0,95,0.00,,---,0.01,0.00,VWS V14.00,2013-09-16 01:22:00,
2013-09-15 21:23:00,57.7,56.3,30.07,NNW,346,0.0,0.0,95,0.00,,---,0.01,0.00,VWS V14.00,2013-09-16 01:23:00,
2013-09-15 21:24:00,57.7,56.3,30.07,NNW,346,0.0,0.0,95,0.00,,---,0.01,0.00,VWS V14.00,2013-09-16 01:24:00,
2013-09-15 21:25:00,57.8,56.4,30.07,NNW,346,0.0,0.0,95,0.00,,---,0.01,0.00,VWS V14.00,2013-09-16 01:25:00,
2013-09-15 21:26:00,57.8,56.4,30.07,NNW,346,0.0,0.0,95,0.00,,---,0.01,0.00,VWS V14.00,2013-09-16 01:26:00,
2013-09-15 21:27:00,57.8,56.4,30.07,NNW,346,0.0,0.0,95,0.00,,---,0.01,0.00,VWS V14.00,2013-09-16 01:27:00,
2013-09-15 21:28:00,57.8,56.4,30.07,NNW,346,0.0,0.0,95,0.00,,---,0.01,0.00,VWS V14.00,2013-09-16 01:28:00,
2013-09-15 21:29:00,57.8,56.4,30.07,NNW,346,0.0,0.0,95,0.00,,---,0.01,0.00,VWS V14.00,2013-09-16 01:29:00,
2013-09-15 21:30:00,57.7,56.3,30.07,NNW,346,0.0,0.0,95,0.00,,---,0.01,0.00,VWS V14.00,2013-09-16 01:30:00,
2013-09-15 21:31:00,57.8,56.4,30.07,NNW,346,0.0,0.0,95,0.00,,---,0.01,0.00,VWS V14.00,2013-09-16 01:31:00,
2013-09-15 21:32:00,57.8,56.4,30.07,NNW,346,0.0,0.0,95,0.00,,---,0.01,0.00,VWS V14.00,2013-09-16 01:32:00,
2013-09-15 21:33:00,57.8,56.4,30.07,NNW,346,0.0,0.0,95,0.00,,---,0.01,0.00,VWS V14.00,2013-09-16 01:33:00,
2013-09-15 21:34:00,57.7,56.3,30.07,NNW,346,0.0,0.0,95,0.00,,---,0.01,0.00,VWS V14.00,2013-09-16 01:34:00,
2013-09-15 21:35:00,57.7,56.3,30.07,NNW,346,0.0,0.0,95,0.00,,---,0.01,0.00,VWS V14.00,2013-09-16 01:35:00,
2013-09-15 21:36:00,57.7,56.3,30.07,NNW,346,0.0,0.0,95,0.00,,---,0.01,0.00,VWS V14.00,2013-09-16 01:36:00,
2013-09-15 21:37:00,57.7,56.3,30.07,NNW,346,0.0,0.0,95,0.00,,---,0.01,0.00,VWS V14.00,2013-09-16 01:37:00,
2013-09-15 21:38:00,57.7,56.3,30.07,NNW,346,0.0,0.0,95,0.00,,---,0.01,0.00,VWS V14.00,2013-09-16 01:38:00,
2013-09-15 21:39:00,57.7,56.3,30.07,NNW,346,0.0,0.0,95,0.00,,---,0.01,0.00,VWS V14.00,2013-09-16 01:39:00,
2013-09-15 21:40:00,57.7,56.3,30.07,NNW,346,0.0,0.0,95,0.00,,---,0.01,0.00,VWS V14.00,2013-09-16 01:40:00,
2013-09-15 21:41:00,57.7,56.3,30.07,NNW,346,0.0,0.0,95,0.00,,---,0.01,0.00,VWS V14.00,2013-09-16 01:41:00,
2013-09-15 21:42:00,57.7,56.3,30.07,NNW,346,0.0,0.0,95,0.00,,---,0.01,0.00,VWS V14.00,2013-09-16 01:42:00,
2013-09-15 21:43:00,57.7,56.3,30.07,NNW,346,0.0,0.0,95,0.00,,---,0.01,0.00,VWS V14.00,2013-09-16 01:43:00,
2013-09-15 21:44:00,57.7,56.3,30.07,NNW,346,0.0,0.0,95,0.00,,---,0.01,0.00,VWS V14.00,2013-09-16 01:44:00,
2013-09-15 21:45:00,57.7,56.3,30.07,NNW,346,0.0,0.0,95,0.00,,---,0.01,0.00,VWS V14.00,2013-09-16 01:45:00,
2013-09-15 21:46:00,57.7,56.3,30.07,NNW,346,0.0,0.0,95,0.00,,---,0.01,0.00,VWS V14.00,2013-09-16 01:46:00,
2013-09-15 21:47:00,57.7,56.3,30.07,NNW,346,0.0,0.0,95,0.00,,---,0.01,0.00,VWS V14.00,2013-09-16 01:47:00,
2013-09-15 21:48:00,57.7,56.6,30.07,NNW,346,0.0,0.0,96,0.00,,---,0.01,0.00,VWS V14.00,2013-09-16 01:48:00,
2013-09-15 21:49:00,57.7,56.6,30.07,NNW,346,0.0,0.0,96,0.00,,---,0.01,0.00,VWS V14.00,2013-09-16 01:49:00,
2013-09-15 21:50:00,57.7,56.6,30.07,NNW,346,0.0,0.0,96,0.00,,---,0.01,0.00,VWS V14.00,2013-09-16 01:50:00,
2013-09-15 21:51:00,57.6,56.5,30.07,NNW,346,0.0,0.0,96,0.00,,---,0.01,0.00,VWS V14.00,2013-09-16 01:51:00,
2013-09-15 21:52:00,57.7,56.6,30.07,NNW,346,0.0,0.0,96,0.00,,---,0.01,0.00,VWS V14.00,2013-09-16 01:52:00,
2013-09-15 21:53:00,57.7,56.6,30.07,NNW,346,0.0,0.0,96,0.00,,---,0.01,0.00,VWS V14.00,2013-09-16 01:53:00,
2013-09-15 21:54:00,57.7,56.6,30.07,NNW,346,0.0,0.0,96,0.00,,---,0.01,0.00,VWS V14.00,2013-09-16 01:54:00,
2013-09-15 21:55:00,57.7,56.6,30.07,NNW,346,0.0,0.0,96,0.00,,---,0.01,0.00,VWS V14.00,2013-09-16 01:55:00,
2013-09-15 21:56:00,57.6,56.5,30.07,NNW,346,0.0,0.0,96,0.00,,---,0.01,0.00,VWS V14.00,2013-09-16 01:56:00,
2013-09-15 21:57:00,57.6,56.5,30.07,NNW,346,0.0,0.0,96,0.00,,---,0.01,0.00,VWS V14.00,2013-09-16 01:57:00,
2013-09-15 21:58:00,57.6,56.5,30.07,NNW,346,0.0,0.0,96,0.00,,---,0.01,0.00,VWS V14.00,2013-09-16 01:58:00,
2013-09-15 21:59:00,57.6,56.5,30.07,NNW,346,0.0,0.0,96,0.00,,---,0.01,0.00,VWS V14.00,2013-09-16 01:59:00,
2013-09-15 22:00:00,57.6,56.5,30.07,NNW,346,0.0,0.0,96,0.00,,---,0.01,0.00,VWS V14.00,2013-09-16 02:00:00,
2013-09-15 22:01:00,57.6,56.5,30.07,NNW,346,0.0,0.0,96,0.00,,---,0.01,0.00,VWS V14.00,2013-09-16 02:01:00,
2013-09-15 22:02:00,57.5,56.4,30.07,NNW,346,0.0,0.0,96,0.00,,---,0.01,0.00,VWS V14.00,2013-09-16 02:02:00,
2013-09-15 22:03:00,57.5,56.4,30.07,NNW,346,0.0,0.0,96,0.00,,---,0.01,0.00,VWS V14.00,2013-09-16 02:03:00,
2013-09-15 22:04:00,57.5,56.4,30.07,NNW,346,0.0,0.0,96,0.00,,---,0.01,0.00,VWS V14.00,2013-09-16 02:04:00,
2013-09-15 22:05:00,57.5,56.4,30.07,NNW,346,0.0,0.0,96,0.00,,---,0.01,0.00,VWS V14.00,2013-09-16 02:05:00,
2013-09-15 22:06:00,57.4,56.3,30.07,NNW,346,0.0,0.0,96,0.00,,---,0.01,0.00,VWS V14.00,2013-09-16 02:06:00,
2013-09-15 22:07:00,57.4,56.3,30.07,NNW,346,0.0,0.0,96,0.00,,---,0.01,0.00,VWS V14.00,2013-09-16 02:07:00,
2013-09-15 22:08:00,57.4,56.3,30.07,NNW,346,0.0,0.0,96,0.00,,---,0.01,0.00,VWS V14.00,2013-09-16 02:08:00,
2013-09-15 22:09:00,57.3,56.2,30.07,NNW,346,0.0,0.0,96,0.00,,---,0.01,0.00,VWS V14.00,2013-09-16 02:09:00,
2013-09-15 22:10:00,57.3,56.2,30.07,NNW,346,0.0,0.0,96,0.00,,---,0.01,0.00,VWS V14.00,2013-09-16 02:10:00,
2013-09-15 22:11:00,57.3,56.2,30.07,NNW,346,0.0,0.0,96,0.00,,---,0.01,0.00,VWS V14.00,2013-09-16 02:11:00,
2013-09-15 22:12:00,57.3,56.2,30.06,NNW,346,0.0,0.0,96,0.00,,---,0.01,0.00,VWS V14.00,2013-09-16 02:12:00,
2013-09-15 22:13:00,57.3,56.2,30.06,NNW,346,0.0,0.0,96,0.00,,---,0.01,0.00,VWS V14.00,2013-09-16 02:13:00,
2013-09-15 22:14:00,57.2,56.1,30.06,NNW,346,0.0,0.0,96,0.00,,---,0.01,0.00,VWS V14.00,2013-09-16 02:14:00,
2013-09-15 22:15:00,57.2,56.1,30.06,NNW,346,0.0,0.0,96,0.00,,---,0.01,0.00,VWS V14.00,2013-09-16 02:15:00,
2013-09-15 22:16:00,57.2,56.1,30.06,NNW,346,0.0,0.0,96,0.00,,---,0.01,0.00,VWS V14.00,2013-09-16 02:16:00,
2013-09-15 22:17:00,57.2,56.1,30.06,NNW,346,0.0,0.0,96,0.00,,---,0.01,0.00,VWS V14.00,2013-09-16 02:17:00,
2013-09-15 22:18:00,57.1,56.0,30.06,NNW,346,0.0,0.0,96,0.00,,---,0.01,0.00,VWS V14.00,2013-09-16 02:18:00,
2013-09-15 22:19:00,57.1,56.0,30.06,NNW,346,0.0,0.0,96,0.00,,---,0.01,0.00,VWS V14.00,2013-09-16 02:19:00,
2013-09-15 22:20:00,57.1,56.0,30.06,NNW,346,0.0,0.0,96,0.00,,---,0.01,0.00,VWS V14.00,2013-09-16 02:20:00,
2013-09-15 22:21:00,57.1,56.0,30.06,NNW,346,0.0,0.0,96,0.00,,---,0.01,0.00,VWS V14.00,2013-09-16 02:21:00,
2013-09-15 22:22:00,57.1,56.0,30.06,NNW,346,0.0,0.0,96,0.00,,---,0.01,0.00,VWS V14.00,2013-09-16 02:22:00,
2013-09-15 22:23:00,57.1,56.0,30.06,NNW,346,0.0,0.0,96,0.00,,---,0.01,0.00,VWS V14.00,2013-09-16 02:23:00,
2013-09-15 22:24:00,57.0,55.9,30.06,NNW,346,0.0,0.0,96,0.00,,---,0.01,0.00,VWS V14.00,2013-09-16 02:24:00,
2013-09-15 22:25:00,57.0,55.9,30.06,NNW,346,0.0,0.0,96,0.00,,---,0.01,0.00,VWS V14.00,2013-09-16 02:25:00,
2013-09-15 22:26:00,57.0,55.9,30.06,NNW,346,0.0,0.0,96,0.00,,---,0.01,0.00,VWS V14.00,2013-09-16 02:26:00,
2013-09-15 22:27:00,57.0,55.9,30.06,NNW,346,0.0,0.0,96,0.00,,---,0.01,0.00,VWS V14.00,2013-09-16 02:27:00,
2013-09-15 22:28:00,56.9,55.8,30.06,NNW,346,0.0,0.0,96,0.00,,---,0.01,0.00,VWS V14.00,2013-09-16 02:28:00,
2013-09-15 22:29:00,56.9,55.8,30.06,NNW,346,0.0,0.0,96,0.00,,---,0.01,0.00,VWS V14.00,2013-09-16 02:29:00,
2013-09-15 22:30:00,56.9,55.8,30.06,NNW,346,0.0,0.0,96,0.00,,---,0.01,0.00,VWS V14.00,2013-09-16 02:30:00,
2013-09-15 22:31:00,56.9,55.8,30.06,NNW,346,0.0,0.0,96,0.00,,---,0.01,0.00,VWS V14.00,2013-09-16 02:31:00,
2013-09-15 22:32:00,56.9,55.8,30.06,NNW,346,0.0,0.0,96,0.00,,---,0.01,0.00,VWS V14.00,2013-09-16 02:32:00,
2013-09-15 22:33:00,56.9,55.8,30.06,NNW,346,0.0,0.0,96,0.00,,---,0.01,0.00,VWS V14.00,2013-09-16 02:33:00,
2013-09-15 22:34:00,56.9,56.1,30.06,NNW,346,0.0,0.0,97,0.00,,---,0.01,0.00,VWS V14.00,2013-09-16 02:34:00,
2013-09-15 22:35:00,56.9,56.1,30.06,NNW,346,0.0,0.0,97,0.00,,---,0.01,0.00,VWS V14.00,2013-09-16 02:35:00,
2013-09-15 22:36:00,56.9,56.1,30.06,NNW,346,0.0,0.0,97,0.00,,---,0.01,0.00,VWS V14.00,2013-09-16 02:36:00,
2013-09-15 22:37:00,56.9,56.1,30.06,NNW,346,0.0,0.0,97,0.00,,---,0.01,0.00,VWS V14.00,2013-09-16 02:37:00,
2013-09-15 22:38:00,56.9,56.1,30.06,NNW,346,0.0,0.0,97,0.00,,---,0.01,0.00,VWS V14.00,2013-09-16 02:38:00,
2013-09-15 22:39:00,56.9,56.1,30.06,NNW,346,0.0,0.0,97,0.00,,---,0.01,0.00,VWS V14.00,2013-09-16 02:39:00,
2013-09-15 22:40:00,57.0,56.2,30.06,NNW,346,0.0,0.0,97,0.00,,---,0.01,0.00,VWS V14.00,2013-09-16 02:40:00,
2013-09-15 22:41:00,56.9,56.1,30.06,NNW,346,0.0,0.0,97,0.00,,---,0.01,0.00,VWS V14.00,2013-09-16 02:41:00,
2013-09-15 22:42:00,56.9,56.1,30.06,NNW,346,0.0,0.0,97,0.00,,---,0.01,0.00,VWS V14.00,2013-09-16 02:42:00,
2013-09-15 22:43:00,56.9,56.1,30.06,NNW,346,0.0,0.0,97,0.00,,---,0.01,0.00,VWS V14.00,2013-09-16 02:43:00,
2013-09-15 22:44:00,56.9,56.1,30.06,NNW,346,0.0,0.0,97,0.00,,---,0.01,0.00,VWS V14.00,2013-09-16 02:44:00,
2013-09-15 22:45:00,57.0,56.2,30.06,NNW,346,0.0,0.0,97,0.00,,---,0.01,0.00,VWS V14.00,2013-09-16 02:45:00,
2013-09-15 22:46:00,56.9,56.1,30.06,NNW,346,0.0,0.0,97,0.00,,---,0.01,0.00,VWS V14.00,2013-09-16 02:46:00,
2013-09-15 22:47:00,56.9,56.1,30.06,NNW,346,0.0,0.0,97,0.00,,---,0.01,0.00,VWS V14.00,2013-09-16 02:47:00,
2013-09-15 22:48:00,56.9,56.1,30.06,NNW,346,0.0,0.0,97,0.00,,---,0.01,0.00,VWS V14.00,2013-09-16 02:48:00,
2013-09-15 22:49:00,56.9,56.1,30.06,NNW,346,0.0,0.0,97,0.00,,---,0.01,0.00,VWS V14.00,2013-09-16 02:49:00,
2013-09-15 22:50:00,56.8,56.0,30.06,NNW,346,0.0,0.0,97,0.00,,---,0.01,0.00,VWS V14.00,2013-09-16 02:50:00,
2013-09-15 22:51:00,56.8,56.0,30.06,NNW,346,0.0,0.0,97,0.00,,---,0.01,0.00,VWS V14.00,2013-09-16 02:51:00,
2013-09-15 22:52:00,56.8,56.0,30.06,NNW,346,0.0,0.0,97,0.00,,---,0.01,0.00,VWS V14.00,2013-09-16 02:52:00,
2013-09-15 22:53:00,56.8,56.0,30.06,NNW,346,0.0,0.0,97,0.00,,---,0.01,0.00,VWS V14.00,2013-09-16 02:53:00,
2013-09-15 22:54:00,56.8,56.0,30.06,NNW,346,0.0,0.0,97,0.00,,---,0.01,0.00,VWS V14.00,2013-09-16 02:54:00,
2013-09-15 22:55:00,56.8,56.0,30.06,NNW,346,0.0,0.0,97,0.00,,---,0.01,0.00,VWS V14.00,2013-09-16 02:55:00,
2013-09-15 22:56:00,56.8,56.0,30.06,NNW,346,0.0,0.0,97,0.00,,---,0.01,0.00,VWS V14.00,2013-09-16 02:56:00,
2013-09-15 22:57:00,56.8,56.0,30.06,NNW,346,0.0,0.0,97,0.00,,---,0.01,0.00,VWS V14.00,2013-09-16 02:57:00,
2013-09-15 22:58:00,56.8,56.0,30.06,NNW,346,0.0,0.0,97,0.00,,---,0.01,0.00,VWS V14.00,2013-09-16 02:58:00,
2013-09-15 22:59:00,56.8,56.0,30.06,NNW,346,0.0,0.0,97,0.00,,---,0.01,0.00,VWS V14.00,2013-09-16 02:59:00,
2013-09-15 23:00:00,56.8,56.0,30.06,NNW,346,0.0,0.0,97,0.00,,---,0.01,0.00,VWS V14.00,2013-09-16 03:00:00,
2013-09-15 23:01:00,56.8,56.0,30.06,NNW,346,0.0,0.0,97,0.00,,---,0.01,0.00,VWS V14.00,2013-09-16 03:01:00,
2013-09-15 23:02:00,56.8,56.0,30.06,NNW,346,0.0,0.0,97,0.00,,---,0.01,0.00,VWS V14.00,2013-09-16 03:02:00,
2013-09-15 23:03:00,56.8,56.0,30.06,NNW,346,0.0,0.0,97,0.00,,---,0.01,0.00,VWS V14.00,2013-09-16 03:03:00,
2013-09-15 23:04:00,56.8,56.0,30.06,NNW,346,0.0,0.0,97,0.00,,---,0.01,0.00,VWS V14.00,2013-09-16 03:04:00,
2013-09-15 23:05:00,56.8,56.0,30.06,NNW,346,0.0,0.0,97,0.00,,---,0.01,0.00,VWS V14.00,2013-09-16 03:05:00,
2013-09-15 23:06:00,56.9,56.1,30.06,NNW,346,0.0,0.0,97,0.00,,---,0.01,0.00,VWS V14.00,2013-09-16 03:06:00,
2013-09-15 23:07:00,56.9,56.1,30.06,NNW,346,0.0,0.0,97,0.00,,---,0.01,0.00,VWS V14.00,2013-09-16 03:07:00,
2013-09-15 23:08:00,56.9,56.1,30.06,NNW,346,0.0,0.0,97,0.00,,---,0.01,0.00,VWS V14.00,2013-09-16 03:08:00,
2013-09-15 23:09:00,56.9,56.1,30.06,NNW,346,0.0,0.0,97,0.00,,---,0.01,0.00,VWS V14.00,2013-09-16 03:09:00,
2013-09-15 23:10:00,56.9,56.1,30.06,NNW,346,0.0,0.0,97,0.00,,---,0.01,0.00,VWS V14.00,2013-09-16 03:10:00,
2013-09-15 23:11:00,56.9,56.1,30.06,NNW,346,0.0,0.0,97,0.00,,---,0.01,0.00,VWS V14.00,2013-09-16 03:11:00,
2013-09-15 23:12:00,56.9,56.1,30.06,NNW,346,0.0,0.0,97,0.00,,---,0.01,0.00,VWS V14.00,2013-09-16 03:12:00,
2013-09-15 23:13:00,57.0,56.2,30.05,NNW,346,0.0,0.0,97,0.00,,---,0.01,0.00,VWS V14.00,2013-09-16 03:13:00,
2013-09-15 23:14:00,57.0,56.2,30.05,NNW,346,0.0,0.0,97,0.00,,---,0.01,0.00,VWS V14.00,2013-09-16 03:14:00,
2013-09-15 23:15:00,57.0,56.2,30.05,NNW,346,0.0,0.0,97,0.00,,---,0.01,0.00,VWS V14.00,2013-09-16 03:15:00,
2013-09-15 23:16:00,56.9,56.1,30.06,NNW,346,0.0,0.0,97,0.00,,---,0.01,0.00,VWS V14.00,2013-09-16 03:16:00,
2013-09-15 23:17:00,57.0,56.2,30.06,NNW,346,0.0,0.0,97,0.00,,---,0.01,0.00,VWS V14.00,2013-09-16 03:17:00,
2013-09-15 23:18:00,57.0,56.2,30.05,NNW,346,0.0,0.0,97,0.00,,---,0.01,0.00,VWS V14.00,2013-09-16 03:18:00,
2013-09-15 23:19:00,57.0,56.2,30.05,NNW,346,0.0,0.0,97,0.00,,---,0.01,0.00,VWS V14.00,2013-09-16 03:19:00,
2013-09-15 23:20:00,57.0,56.2,30.05,NNW,346,0.0,0.0,97,0.00,,---,0.01,0.00,VWS V14.00,2013-09-16 03:20:00,
2013-09-15 23:21:00,57.0,56.2,30.05,NNW,346,0.0,0.0,97,0.00,,---,0.01,0.00,VWS V14.00,2013-09-16 03:21:00,
2013-09-15 23:22:00,57.0,56.2,30.05,NNW,346,0.0,0.0,97,0.00,,---,0.01,0.00,VWS V14.00,2013-09-16 03:22:00,
2013-09-15 23:23:00,57.0,56.2,30.05,NNW,346,0.0,0.0,97,0.00,,---,0.01,0.00,VWS V14.00,2013-09-16 03:23:00,
2013-09-15 23:24:00,57.0,56.2,30.05,NNW,346,0.0,0.0,97,0.00,,---,0.01,0.00,VWS V14.00,2013-09-16 03:24:00,
2013-09-15 23:25:00,57.0,56.2,30.05,NNW,346,0.0,0.0,97,0.00,,---,0.01,0.00,VWS V14.00,2013-09-16 03:25:00,
2013-09-15 23:26:00,57.0,56.2,30.05,NNW,346,0.0,0.0,97,0.00,,---,0.01,0.00,VWS V14.00,2013-09-16 03:26:00,
2013-09-15 23:27:00,57.0,56.2,30.05,NNW,346,0.0,0.0,97,0.00,,---,0.01,0.00,VWS V14.00,2013-09-16 03:27:00,
2013-09-15 23:28:00,57.0,56.2,30.05,NNW,346,0.0,0.0,97,0.00,,---,0.01,0.00,VWS V14.00,2013-09-16 03:28:00,
2013-09-15 23:29:00,57.1,56.3,30.05,NNW,346,0.0,0.0,97,0.00,,---,0.01,0.00,VWS V14.00,2013-09-16 03:29:00,
2013-09-15 23:30:00,57.1,56.3,30.05,NNW,346,0.0,0.0,97,0.00,,---,0.01,0.00,VWS V14.00,2013-09-16 03:30:00,
2013-09-15 23:31:00,57.1,56.5,30.05,NNW,346,0.0,0.0,98,0.00,,---,0.01,0.00,VWS V14.00,2013-09-16 03:31:00,
2013-09-15 23:32:00,57.1,56.5,30.05,NNW,346,0.0,0.0,98,0.00,,---,0.01,0.00,VWS V14.00,2013-09-16 03:32:00,
2013-09-15 23:33:00,57.1,56.5,30.05,NNW,346,0.0,0.0,98,0.00,,---,0.01,0.00,VWS V14.00,2013-09-16 03:33:00,
2013-09-15 23:34:00,57.1,56.5,30.05,NNW,346,0.0,0.0,98,0.00,,---,0.01,0.00,VWS V14.00,2013-09-16 03:34:00,
2013-09-15 23:35:00,57.1,56.5,30.05,NNW,346,0.0,0.0,98,0.00,,---,0.01,0.00,VWS V14.00,2013-09-16 03:35:00,
2013-09-15 23:36:00,57.1,56.5,30.05,NNW,346,0.0,0.0,98,0.00,,---,0.01,0.00,VWS V14.00,2013-09-16 03:36:00,
2013-09-15 23:37:00,57.2,56.6,30.05,NNW,346,0.0,0.0,98,0.00,,---,0.01,0.00,VWS V14.00,2013-09-16 03:37:00,
2013-09-15 23:38:00,57.1,56.5,30.05,NNW,346,0.0,0.0,98,0.00,,---,0.01,0.00,VWS V14.00,2013-09-16 03:38:00,
2013-09-15 23:39:00,57.1,56.5,30.05,NNW,346,0.0,0.0,98,0.00,,---,0.01,0.00,VWS V14.00,2013-09-16 03:39:00,
2013-09-15 23:40:00,57.1,56.5,30.05,NNW,346,0.0,0.0,98,0.00,,---,0.01,0.00,VWS V14.00,2013-09-16 03:40:00,
2013-09-15 23:41:00,57.2,56.6,30.05,NNW,346,0.0,0.0,98,0.00,,---,0.01,0.00,VWS V14.00,2013-09-16 03:41:00,
2013-09-15 23:42:00,57.2,56.6,30.05,NNW,346,0.0,0.0,98,0.00,,---,0.01,0.00,VWS V14.00,2013-09-16 03:42:00,
2013-09-15 23:43:00,57.2,56.6,30.05,NNW,346,0.0,0.0,98,0.00,,---,0.01,0.00,VWS V14.00,2013-09-16 03:43:00,
2013-09-15 23:44:00,57.2,56.6,30.05,NNW,346,0.0,0.0,98,0.00,,---,0.01,0.00,VWS V14.00,2013-09-16 03:44:00,
2013-09-15 23:45:00,57.2,56.6,30.05,NNW,346,0.0,0.0,98,0.00,,---,0.01,0.00,VWS V14.00,2013-09-16 03:45:00,
2013-09-15 23:46:00,57.3,56.7,30.05,NNW,346,0.0,0.0,98,0.00,,---,0.01,0.00,VWS V14.00,2013-09-16 03:46:00,
2013-09-15 23:47:00,57.3,56.7,30.05,NNW,346,0.0,0.0,98,0.00,,---,0.01,0.00,VWS V14.00,2013-09-16 03:47:00,
2013-09-15 23:48:00,57.3,56.7,30.05,NNW,346,0.0,0.0,98,0.00,,---,0.01,0.00,VWS V14.00,2013-09-16 03:48:00,
2013-09-15 23:49:00,57.3,56.7,30.05,NNW,346,0.0,0.0,98,0.00,,---,0.01,0.00,VWS V14.00,2013-09-16 03:49:00,
2013-09-15 23:50:00,57.3,56.7,30.05,NNW,346,0.0,0.0,98,0.00,,---,0.01,0.00,VWS V14.00,2013-09-16 03:50:00,
2013-09-15 23:51:00,57.3,56.7,30.05,NNW,346,0.0,0.0,98,0.00,,---,0.01,0.00,VWS V14.00,2013-09-16 03:51:00,
2013-09-15 23:52:00,57.3,56.7,30.05,NNW,346,0.0,0.0,98,0.00,,---,0.01,0.00,VWS V14.00,2013-09-16 03:52:00,
2013-09-15 23:53:00,57.3,56.7,30.05,NNW,346,0.0,0.0,98,0.00,,---,0.01,0.00,VWS V14.00,2013-09-16 03:53:00,
2013-09-15 23:54:00,57.3,56.7,30.05,NNW,346,0.0,0.0,98,0.00,,---,0.01,0.00,VWS V14.00,2013-09-16 03:54:00,
2013-09-15 23:55:00,57.3,56.7,30.05,NNW,346,0.0,0.0,98,0.00,,---,0.01,0.00,VWS V14.00,2013-09-16 03:55:00,
2013-09-15 23:56:00,57.3,56.7,30.05,NNW,346,0.0,0.0,98,0.00,,---,0.01,0.00,VWS V14.00,2013-09-16 03:56:00,
2013-09-15 23:57:00,57.3,56.7,30.05,NNW,346,0.0,0.0,98,0.00,,---,0.01,0.00,VWS V14.00,2013-09-16 03:57:00,
2013-09-15 23:58:00,57.3,56.7,30.05,NNW,346,0.0,0.0,98,0.00,,---,0.01,0.00,VWS V14.00,2013-09-16 03:58:00,
2013-09-15 23:59:00,57.3,56.7,30.05,NNW,346,0.0,0.0,98,0.00,,---,0.01,0.00,VWS V14.00,2013-09-16 03:59:00,